AFR32A LFPG-KSAN
Flight info
| Callsign | AFR32A |
|---|---|
| Flight time | N/A |
| Altitude | 30000 |
| Route | ATREX DCT VESAN DCT RATUK DCT SOVAT/N0484F360 L613 SANDY DCT OKSAW DCT TEWXI DCT LIPGO DCT RESNO/M085F370 NATA JANJO/N0476F380 DCT HENDY/N0485F400 DCT YSP DCT DLH DCT HON DCT BFF J157 LAR DCT JNC DCT EED BARET5 |
| Aircraft | A359/H-SDE2E3GHIJ3J4J5LM1ORWXY/LB1D1 |
Departure
| Time | N/A |
|---|---|
| Airport | Charles de Gaulle International Airport (LFPG) |
Arrival
| Time | 2026-04-26 21:26 |
|---|---|
| Airport | San Diego International Airport (KSAN) |
| Time | Latitude | Longitude | Altitude | Speed | Heading |
|---|---|---|---|---|---|
| 2026-04-26 13:57 | 56.90751 | -41.44962 | 37468 ft | 501 kts | 261° |
| 2026-04-26 13:57 | 56.89867 | -41.57524 | 37472 ft | 502 kts | 261° |
| 2026-04-26 13:58 | 56.88962 | -41.70188 | 37468 ft | 502 kts | 260° |
| 2026-04-26 13:58 | 56.88044 | -41.82879 | 37463 ft | 502 kts | 262° |
| 2026-04-26 13:59 | 56.87115 | -41.95525 | 37467 ft | 501 kts | 261° |
| 2026-04-26 13:59 | 56.86175 | -42.08144 | 37465 ft | 501 kts | 261° |
| 2026-04-26 14:00 | 56.84256 | -42.33362 | 37473 ft | 501 kts | 261° |
| 2026-04-26 14:01 | 56.83276 | -42.45977 | 37473 ft | 503 kts | 261° |
| 2026-04-26 14:01 | 56.82282 | -42.58612 | 37467 ft | 502 kts | 261° |
| 2026-04-26 14:02 | 56.81276 | -42.71228 | 37467 ft | 503 kts | 261° |
| 2026-04-26 14:02 | 56.80262 | -42.83778 | 37475 ft | 503 kts | 262° |
| 2026-04-26 14:03 | 56.79228 | -42.96399 | 37470 ft | 503 kts | 261° |
| 2026-04-26 14:03 | 56.78181 | -43.09028 | 37468 ft | 503 kts | 262° |
| 2026-04-26 14:04 | 56.77118 | -43.21692 | 37475 ft | 506 kts | 261° |
| 2026-04-26 14:04 | 56.76043 | -43.34338 | 37478 ft | 505 kts | 261° |
| 2026-04-26 14:05 | 56.74961 | -43.46916 | 37479 ft | 504 kts | 261° |
| 2026-04-26 14:05 | 56.73858 | -43.59564 | 37482 ft | 505 kts | 261° |
| 2026-04-26 14:06 | 56.72744 | -43.72198 | 37489 ft | 506 kts | 262° |
| 2026-04-26 14:06 | 56.71614 | -43.84859 | 37485 ft | 507 kts | 262° |
| 2026-04-26 14:07 | 56.70468 | -43.97548 | 37482 ft | 507 kts | 261° |
| 2026-04-26 14:07 | 56.69309 | -44.10226 | 37501 ft | 508 kts | 261° |
| 2026-04-26 14:08 | 56.68136 | -44.22901 | 37500 ft | 508 kts | 261° |
| 2026-04-26 14:08 | 56.66957 | -44.35499 | 37497 ft | 508 kts | 261° |
| 2026-04-26 14:09 | 56.65758 | -44.48170 | 37493 ft | 508 kts | 261° |
| 2026-04-26 14:09 | 56.64545 | -44.60851 | 37493 ft | 510 kts | 261° |
| 2026-04-26 14:10 | 56.63320 | -44.73511 | 37494 ft | 509 kts | 261° |
| 2026-04-26 14:10 | 56.62082 | -44.86177 | 37492 ft | 509 kts | 261° |
| 2026-04-26 14:11 | 56.60205 | -45.05075 | 37503 ft | 507 kts | 261° |
| 2026-04-26 14:11 | 56.58934 | -45.17706 | 37505 ft | 508 kts | 261° |
| 2026-04-26 14:12 | 56.57650 | -45.30348 | 37507 ft | 510 kts | 261° |
| 2026-04-26 14:12 | 56.56350 | -45.42995 | 37519 ft | 511 kts | 261° |
| 2026-04-26 14:13 | 56.54384 | -45.61882 | 37519 ft | 511 kts | 261° |
| 2026-04-26 14:14 | 56.53052 | -45.74511 | 37519 ft | 510 kts | 261° |
| 2026-04-26 14:14 | 56.51707 | -45.87136 | 37531 ft | 510 kts | 261° |
| 2026-04-26 14:15 | 56.50354 | -45.99720 | 37528 ft | 509 kts | 261° |
| 2026-04-26 14:15 | 56.48986 | -46.12299 | 37535 ft | 508 kts | 260° |
| 2026-04-26 14:16 | 56.47609 | -46.24826 | 37549 ft | 508 kts | 261° |
| 2026-04-26 14:16 | 56.46219 | -46.37359 | 37545 ft | 507 kts | 261° |
| 2026-04-26 14:17 | 56.44820 | -46.49873 | 37547 ft | 508 kts | 260° |
| 2026-04-26 14:17 | 56.43401 | -46.62428 | 37568 ft | 510 kts | 261° |
| 2026-04-26 14:18 | 56.41975 | -46.74904 | 37564 ft | 510 kts | 260° |
| 2026-04-26 14:18 | 56.40531 | -46.87421 | 37565 ft | 510 kts | 261° |
| 2026-04-26 14:19 | 56.39073 | -46.99955 | 37567 ft | 509 kts | 261° |
| 2026-04-26 14:19 | 56.37604 | -47.12459 | 37585 ft | 508 kts | 261° |
| 2026-04-26 14:20 | 56.36127 | -47.24931 | 37590 ft | 508 kts | 261° |
| 2026-04-26 14:20 | 56.34637 | -47.37401 | 37590 ft | 508 kts | 261° |
| 2026-04-26 14:21 | 56.33135 | -47.49848 | 37604 ft | 508 kts | 261° |
| 2026-04-26 14:21 | 56.31619 | -47.62292 | 37605 ft | 508 kts | 261° |
| 2026-04-26 14:22 | 56.30099 | -47.74662 | 37604 ft | 508 kts | 261° |
| 2026-04-26 14:22 | 56.28555 | -47.87111 | 37625 ft | 509 kts | 261° |
| 2026-04-26 14:23 | 56.26998 | -47.99548 | 37628 ft | 510 kts | 261° |
| 2026-04-26 14:23 | 56.25430 | -48.11962 | 37625 ft | 508 kts | 261° |
| 2026-04-26 14:24 | 56.23854 | -48.24334 | 37636 ft | 507 kts | 261° |
| 2026-04-26 14:24 | 56.22280 | -48.36597 | 37637 ft | 507 kts | 261° |
| 2026-04-26 14:25 | 56.20681 | -48.48948 | 37652 ft | 508 kts | 260° |
| 2026-04-26 14:25 | 56.19066 | -48.61313 | 37640 ft | 509 kts | 261° |
| 2026-04-26 14:26 | 56.17436 | -48.73685 | 37670 ft | 509 kts | 260° |
| 2026-04-26 14:26 | 56.15795 | -48.86037 | 37680 ft | 509 kts | 260° |
| 2026-04-26 14:27 | 56.14141 | -48.98385 | 37675 ft | 509 kts | 260° |
| 2026-04-26 14:27 | 56.12471 | -49.10744 | 37686 ft | 510 kts | 260° |
| 2026-04-26 14:28 | 56.10786 | -49.23116 | 37688 ft | 511 kts | 260° |
| 2026-04-26 14:28 | 56.09102 | -49.35381 | 37693 ft | 511 kts | 260° |
| 2026-04-26 14:29 | 56.07395 | -49.47712 | 37704 ft | 511 kts | 260° |
| 2026-04-26 14:29 | 56.05671 | -49.60061 | 37700 ft | 511 kts | 260° |
| 2026-04-26 14:30 | 56.03936 | -49.72397 | 37705 ft | 511 kts | 260° |
| 2026-04-26 14:30 | 56.02184 | -49.84762 | 37725 ft | 513 kts | 260° |
| 2026-04-26 14:31 | 56.00398 | -49.97121 | 37720 ft | 515 kts | 257° |
| 2026-04-26 14:31 | 55.97854 | -50.09045 | 37717 ft | 518 kts | 251° |
| 2026-04-26 14:32 | 55.94990 | -50.20981 | 37730 ft | 521 kts | 250° |
| 2026-04-26 14:32 | 55.92104 | -50.32759 | 37743 ft | 522 kts | 250° |
| 2026-04-26 14:33 | 55.89187 | -50.44648 | 37746 ft | 523 kts | 250° |
| 2026-04-26 14:33 | 55.86271 | -50.56521 | 37749 ft | 523 kts | 250° |
| 2026-04-26 14:34 | 55.83836 | -50.66394 | 37752 ft | 523 kts | 250° |
| 2026-04-26 14:34 | 55.80901 | -50.78239 | 37752 ft | 523 kts | 250° |
| 2026-04-26 14:35 | 55.77949 | -50.90089 | 37766 ft | 525 kts | 250° |
| 2026-04-26 14:35 | 55.74979 | -51.01950 | 37771 ft | 525 kts | 249° |
| 2026-04-26 14:36 | 55.71996 | -51.13792 | 37771 ft | 526 kts | 249° |
| 2026-04-26 14:36 | 55.69021 | -51.25540 | 37771 ft | 526 kts | 249° |
| 2026-04-26 14:37 | 55.66013 | -51.37354 | 37779 ft | 526 kts | 249° |
| 2026-04-26 14:37 | 55.62987 | -51.49183 | 37794 ft | 528 kts | 249° |
| 2026-04-26 14:38 | 55.59946 | -51.61003 | 37794 ft | 528 kts | 249° |
| 2026-04-26 14:38 | 55.56892 | -51.72810 | 37793 ft | 528 kts | 249° |
| 2026-04-26 14:39 | 55.53826 | -51.84601 | 37812 ft | 528 kts | 249° |
| 2026-04-26 14:39 | 55.50773 | -51.96285 | 37812 ft | 528 kts | 249° |
| 2026-04-26 14:40 | 55.47683 | -52.08046 | 37815 ft | 528 kts | 248° |
| 2026-04-26 14:40 | 55.44580 | -52.19794 | 37820 ft | 528 kts | 248° |
| 2026-04-26 14:41 | 55.41470 | -52.31510 | 37816 ft | 528 kts | 248° |
| 2026-04-26 14:41 | 55.38344 | -52.43226 | 37839 ft | 528 kts | 248° |
| 2026-04-26 14:42 | 55.35222 | -52.54866 | 37840 ft | 530 kts | 248° |
| 2026-04-26 14:42 | 55.32072 | -52.66557 | 37838 ft | 530 kts | 248° |
| 2026-04-26 14:43 | 55.28908 | -52.78230 | 37841 ft | 529 kts | 248° |
| 2026-04-26 14:43 | 55.25738 | -52.89865 | 37864 ft | 529 kts | 248° |
| 2026-04-26 14:44 | 55.22553 | -53.01502 | 37854 ft | 530 kts | 248° |
| 2026-04-26 14:44 | 55.19363 | -53.13096 | 37863 ft | 531 kts | 248° |
| 2026-04-26 14:45 | 55.16151 | -53.24712 | 37886 ft | 531 kts | 248° |
| 2026-04-26 14:45 | 55.12923 | -53.36324 | 37877 ft | 530 kts | 248° |
| 2026-04-26 14:46 | 55.09681 | -53.47933 | 37884 ft | 531 kts | 247° |
| 2026-04-26 14:46 | 55.06422 | -53.59542 | 37890 ft | 533 kts | 247° |
| 2026-04-26 14:47 | 55.03148 | -53.71146 | 37912 ft | 533 kts | 247° |
| 2026-04-26 14:47 | 54.99860 | -53.82738 | 37888 ft | 533 kts | 247° |
| 2026-04-26 14:48 | 54.96587 | -53.94223 | 37908 ft | 532 kts | 247° |
| 2026-04-26 14:48 | 54.93288 | -54.05747 | 37923 ft | 533 kts | 247° |
| 2026-04-26 14:49 | 54.89967 | -54.17286 | 37923 ft | 533 kts | 247° |
| 2026-04-26 14:49 | 54.86637 | -54.28798 | 37927 ft | 533 kts | 246° |
| 2026-04-26 14:50 | 54.83298 | -54.40285 | 37941 ft | 533 kts | 246° |
| 2026-04-26 14:50 | 54.79963 | -54.51706 | 37950 ft | 534 kts | 246° |
| 2026-04-26 14:51 | 54.76599 | -54.63167 | 37946 ft | 534 kts | 246° |
| 2026-04-26 14:51 | 54.73220 | -54.74624 | 37952 ft | 534 kts | 246° |
| 2026-04-26 14:52 | 54.69828 | -54.86069 | 37974 ft | 534 kts | 246° |
| 2026-04-26 14:52 | 54.66428 | -54.97488 | 37969 ft | 534 kts | 245° |
| 2026-04-26 14:53 | 54.63015 | -55.08891 | 37984 ft | 535 kts | 245° |
| 2026-04-26 14:53 | 54.59609 | -55.20218 | 37983 ft | 535 kts | 245° |
| 2026-04-26 14:54 | 54.56171 | -55.31596 | 37995 ft | 535 kts | 245° |
| 2026-04-26 14:54 | 54.52723 | -55.42956 | 37997 ft | 535 kts | 245° |
| 2026-04-26 14:55 | 54.49260 | -55.54308 | 38002 ft | 535 kts | 244° |
| 2026-04-26 14:55 | 54.45786 | -55.65643 | 38021 ft | 535 kts | 244° |
| 2026-04-26 14:56 | 54.42298 | -55.76970 | 38017 ft | 535 kts | 244° |
| 2026-04-26 14:56 | 54.38823 | -55.88201 | 38021 ft | 535 kts | 244° |
| 2026-04-26 14:57 | 54.35312 | -55.99496 | 38025 ft | 536 kts | 244° |
| 2026-04-26 14:57 | 54.31791 | -56.10772 | 38035 ft | 537 kts | 244° |
| 2026-04-26 14:58 | 54.28257 | -56.22031 | 38060 ft | 536 kts | 244° |
| 2026-04-26 14:58 | 54.24716 | -56.33262 | 38036 ft | 535 kts | 244° |
| 2026-04-26 14:59 | 54.21198 | -56.44371 | 38058 ft | 534 kts | 243° |
| 2026-04-26 14:59 | 54.17652 | -56.55518 | 38062 ft | 533 kts | 243° |
| 2026-04-26 15:00 | 54.14107 | -56.66606 | 38075 ft | 532 kts | 243° |
| 2026-04-26 15:00 | 54.10549 | -56.77688 | 38087 ft | 533 kts | 243° |
| 2026-04-26 15:01 | 54.06982 | -56.88746 | 38085 ft | 533 kts | 243° |
| 2026-04-26 15:01 | 54.03762 | -57.00056 | 38091 ft | 528 kts | 255° |
| 2026-04-26 15:02 | 54.02188 | -57.12178 | 38105 ft | 523 kts | 264° |
| 2026-04-26 15:02 | 54.01079 | -57.24414 | 38103 ft | 523 kts | 266° |
| 2026-04-26 15:03 | 54.00024 | -57.36617 | 38127 ft | 526 kts | 266° |
| 2026-04-26 15:03 | 53.98918 | -57.48922 | 38126 ft | 527 kts | 265° |
| 2026-04-26 15:04 | 53.97775 | -57.61238 | 38132 ft | 527 kts | 264° |
| 2026-04-26 15:04 | 53.96616 | -57.73517 | 38149 ft | 526 kts | 264° |
| 2026-04-26 15:05 | 53.95446 | -57.85786 | 38155 ft | 526 kts | 264° |
| 2026-04-26 15:05 | 53.94264 | -57.98051 | 38167 ft | 527 kts | 264° |
| 2026-04-26 15:06 | 53.93070 | -58.10324 | 38171 ft | 527 kts | 264° |
| 2026-04-26 15:06 | 53.91868 | -58.22533 | 38189 ft | 527 kts | 264° |
| 2026-04-26 15:07 | 53.90031 | -58.40953 | 38189 ft | 529 kts | 264° |
| 2026-04-26 15:07 | 53.88786 | -58.53267 | 38209 ft | 529 kts | 264° |
| 2026-04-26 15:08 | 53.87531 | -58.65548 | 38204 ft | 529 kts | 264° |
| 2026-04-26 15:08 | 53.86262 | -58.77822 | 38227 ft | 528 kts | 264° |
| 2026-04-26 15:09 | 53.84984 | -58.90074 | 38223 ft | 528 kts | 264° |
| 2026-04-26 15:09 | 53.83693 | -59.02310 | 38223 ft | 528 kts | 263° |
| 2026-04-26 15:10 | 53.82610 | -59.12486 | 38232 ft | 530 kts | 264° |
| 2026-04-26 15:10 | 53.81065 | -59.26853 | 38235 ft | 531 kts | 263° |
| 2026-04-26 15:11 | 53.79730 | -59.39130 | 38234 ft | 530 kts | 263° |
| 2026-04-26 15:11 | 53.78393 | -59.51300 | 38242 ft | 529 kts | 263° |
| 2026-04-26 15:12 | 53.77038 | -59.63519 | 38246 ft | 529 kts | 263° |
| 2026-04-26 15:12 | 53.75668 | -59.75753 | 38246 ft | 529 kts | 263° |
| 2026-04-26 15:13 | 53.74286 | -59.87983 | 38247 ft | 528 kts | 262° |
| 2026-04-26 15:13 | 53.72896 | -60.00151 | 38251 ft | 528 kts | 262° |
| 2026-04-26 15:14 | 53.71504 | -60.12236 | 38256 ft | 528 kts | 262° |
| 2026-04-26 15:14 | 53.70085 | -60.24436 | 38251 ft | 528 kts | 262° |
| 2026-04-26 15:15 | 53.68655 | -60.36611 | 38259 ft | 528 kts | 262° |
| 2026-04-26 15:15 | 53.67212 | -60.48775 | 38267 ft | 528 kts | 262° |
| 2026-04-26 15:16 | 53.65762 | -60.60897 | 38261 ft | 526 kts | 261° |
| 2026-04-26 15:16 | 53.64301 | -60.72990 | 38239 ft | 526 kts | 261° |
| 2026-04-26 15:17 | 53.63079 | -60.83035 | 38266 ft | 527 kts | 261° |
| 2026-04-26 15:17 | 53.61352 | -60.97109 | 38265 ft | 527 kts | 261° |
| 2026-04-26 15:18 | 53.59853 | -61.09193 | 38263 ft | 527 kts | 261° |
| 2026-04-26 15:18 | 53.58342 | -61.21282 | 38261 ft | 527 kts | 261° |
| 2026-04-26 15:19 | 53.56820 | -61.33345 | 38266 ft | 525 kts | 260° |
| 2026-04-26 15:19 | 53.55293 | -61.45332 | 38255 ft | 524 kts | 260° |
| 2026-04-26 15:20 | 53.53755 | -61.57315 | 38277 ft | 524 kts | 260° |
| 2026-04-26 15:20 | 53.52468 | -61.67264 | 38269 ft | 524 kts | 259° |
| 2026-04-26 15:21 | 53.50906 | -61.79247 | 38266 ft | 524 kts | 259° |
| 2026-04-26 15:21 | 53.49332 | -61.91217 | 38273 ft | 524 kts | 259° |
| 2026-04-26 15:22 | 53.47759 | -62.03086 | 38273 ft | 524 kts | 259° |
| 2026-04-26 15:22 | 53.46164 | -62.15015 | 38283 ft | 524 kts | 259° |
| 2026-04-26 15:23 | 53.44557 | -62.26942 | 38274 ft | 524 kts | 259° |
| 2026-04-26 15:23 | 53.42934 | -62.38885 | 38282 ft | 524 kts | 258° |
| 2026-04-26 15:24 | 53.41304 | -62.50796 | 38279 ft | 524 kts | 258° |
| 2026-04-26 15:24 | 53.39660 | -62.62697 | 38276 ft | 524 kts | 258° |
| 2026-04-26 15:25 | 53.38009 | -62.74568 | 38282 ft | 523 kts | 258° |
| 2026-04-26 15:25 | 53.36359 | -62.86331 | 38277 ft | 522 kts | 258° |
| 2026-04-26 15:26 | 53.34687 | -62.98152 | 38273 ft | 522 kts | 257° |
| 2026-04-26 15:26 | 53.33001 | -63.09991 | 38274 ft | 522 kts | 257° |
| 2026-04-26 15:27 | 53.31307 | -63.21796 | 38272 ft | 522 kts | 257° |
| 2026-04-26 15:27 | 53.29600 | -63.33592 | 38272 ft | 522 kts | 257° |
| 2026-04-26 15:28 | 53.27884 | -63.45371 | 38259 ft | 521 kts | 257° |
| 2026-04-26 15:28 | 53.26160 | -63.57113 | 38274 ft | 519 kts | 256° |
| 2026-04-26 15:29 | 53.24436 | -63.68761 | 38273 ft | 519 kts | 256° |
| 2026-04-26 15:30 | 53.20940 | -63.92129 | 38277 ft | 519 kts | 256° |
| 2026-04-26 15:30 | 53.19173 | -64.03810 | 38283 ft | 519 kts | 256° |
| 2026-04-26 15:31 | 53.16516 | -64.21222 | 38283 ft | 519 kts | 256° |
| 2026-04-26 15:32 | 53.14113 | -64.36811 | 38290 ft | 519 kts | 256° |
| 2026-04-26 15:32 | 53.12010 | -64.50328 | 38290 ft | 519 kts | 255° |
| 2026-04-26 15:33 | 53.10186 | -64.61959 | 38290 ft | 519 kts | 255° |
| 2026-04-26 15:33 | 53.08354 | -64.73565 | 38290 ft | 518 kts | 255° |
| 2026-04-26 15:34 | 53.06523 | -64.85088 | 38291 ft | 518 kts | 255° |
| 2026-04-26 15:34 | 53.04672 | -64.96653 | 38295 ft | 517 kts | 255° |
| 2026-04-26 15:35 | 53.02813 | -65.08185 | 38297 ft | 516 kts | 254° |
| 2026-04-26 15:35 | 53.00943 | -65.19699 | 38297 ft | 516 kts | 254° |
| 2026-04-26 15:36 | 52.99063 | -65.31208 | 38298 ft | 516 kts | 254° |
| 2026-04-26 15:36 | 52.97183 | -65.42633 | 38295 ft | 516 kts | 254° |
| 2026-04-26 15:37 | 52.95283 | -65.54116 | 38294 ft | 515 kts | 253° |
| 2026-04-26 15:37 | 52.93378 | -65.65537 | 38293 ft | 514 kts | 253° |
| 2026-04-26 15:38 | 52.91461 | -65.76960 | 38292 ft | 513 kts | 253° |
| 2026-04-26 15:38 | 52.89538 | -65.88342 | 38293 ft | 513 kts | 253° |
| 2026-04-26 15:39 | 52.87601 | -65.99733 | 38290 ft | 513 kts | 253° |
| 2026-04-26 15:39 | 52.85987 | -66.09169 | 38290 ft | 513 kts | 253° |
| 2026-04-26 15:40 | 52.83715 | -66.22371 | 38295 ft | 512 kts | 252° |
| 2026-04-26 15:40 | 52.81758 | -66.33664 | 38292 ft | 510 kts | 252° |
| 2026-04-26 15:41 | 52.79790 | -66.44940 | 38297 ft | 510 kts | 252° |
| 2026-04-26 15:41 | 52.77810 | -66.56215 | 38298 ft | 510 kts | 252° |
| 2026-04-26 15:42 | 52.75821 | -66.67472 | 38264 ft | 510 kts | 252° |
| 2026-04-26 15:42 | 52.73824 | -66.78706 | 38255 ft | 510 kts | 251° |
| 2026-04-26 15:43 | 52.71832 | -66.89849 | 38297 ft | 508 kts | 251° |
| 2026-04-26 15:44 | 52.68826 | -67.06525 | 38291 ft | 504 kts | 251° |
| 2026-04-26 15:44 | 52.65803 | -67.23137 | 38297 ft | 504 kts | 251° |
| 2026-04-26 15:45 | 52.62757 | -67.39731 | 38295 ft | 504 kts | 251° |
| 2026-04-26 15:46 | 52.59698 | -67.56252 | 38304 ft | 502 kts | 250° |
| 2026-04-26 15:46 | 52.57997 | -67.65374 | 38297 ft | 501 kts | 250° |
| 2026-04-26 15:47 | 52.54575 | -67.83584 | 38286 ft | 501 kts | 250° |
| 2026-04-26 15:48 | 52.52504 | -67.94520 | 38282 ft | 501 kts | 250° |
| 2026-04-26 15:48 | 52.50424 | -68.05442 | 38285 ft | 501 kts | 250° |
| 2026-04-26 15:49 | 52.48335 | -68.16354 | 38280 ft | 500 kts | 249° |
| 2026-04-26 15:49 | 52.46241 | -68.27225 | 38278 ft | 500 kts | 249° |
| 2026-04-26 15:50 | 52.44125 | -68.38142 | 38273 ft | 502 kts | 249° |
| 2026-04-26 15:50 | 52.42016 | -68.48969 | 38279 ft | 502 kts | 249° |
| 2026-04-26 15:51 | 52.39880 | -68.59868 | 38273 ft | 502 kts | 249° |
| 2026-04-26 15:51 | 52.37737 | -68.70744 | 38269 ft | 502 kts | 249° |
| 2026-04-26 15:52 | 52.35589 | -68.81590 | 38271 ft | 500 kts | 249° |
| 2026-04-26 15:52 | 52.33434 | -68.92404 | 38266 ft | 499 kts | 249° |
| 2026-04-26 15:53 | 52.31271 | -69.03195 | 38267 ft | 499 kts | 249° |
| 2026-04-26 15:53 | 52.29103 | -69.13953 | 38267 ft | 499 kts | 248° |
| 2026-04-26 15:54 | 52.26936 | -69.24654 | 38265 ft | 499 kts | 248° |
| 2026-04-26 15:54 | 52.24735 | -69.35459 | 38266 ft | 499 kts | 248° |
| 2026-04-26 15:55 | 52.22551 | -69.46125 | 38268 ft | 499 kts | 248° |
| 2026-04-26 15:55 | 52.20345 | -69.56840 | 38272 ft | 499 kts | 248° |
| 2026-04-26 15:56 | 52.18124 | -69.67566 | 38265 ft | 499 kts | 248° |
| 2026-04-26 15:56 | 52.15898 | -69.78264 | 38263 ft | 499 kts | 248° |
| 2026-04-26 15:57 | 52.13662 | -69.88950 | 38262 ft | 499 kts | 248° |
| 2026-04-26 15:57 | 52.11417 | -69.99620 | 38263 ft | 498 kts | 248° |
| 2026-04-26 15:58 | 52.09164 | -70.10278 | 38265 ft | 498 kts | 248° |
| 2026-04-26 15:58 | 52.06902 | -70.20915 | 38265 ft | 498 kts | 247° |
| 2026-04-26 15:59 | 52.04641 | -70.31495 | 38263 ft | 499 kts | 247° |
| 2026-04-26 15:59 | 52.02350 | -70.42153 | 38263 ft | 500 kts | 247° |
| 2026-04-26 16:00 | 52.00051 | -70.52802 | 38259 ft | 500 kts | 247° |
| 2026-04-26 16:00 | 51.97738 | -70.63464 | 38259 ft | 499 kts | 247° |
| 2026-04-26 16:01 | 51.95421 | -70.74087 | 38250 ft | 499 kts | 247° |
| 2026-04-26 16:01 | 51.93095 | -70.84690 | 38250 ft | 499 kts | 247° |
| 2026-04-26 16:02 | 51.90763 | -70.95267 | 38242 ft | 499 kts | 247° |
| 2026-04-26 16:02 | 51.88433 | -71.05784 | 38243 ft | 499 kts | 246° |
| 2026-04-26 16:03 | 51.86078 | -71.16358 | 38241 ft | 499 kts | 246° |
| 2026-04-26 16:03 | 51.83716 | -71.26913 | 38240 ft | 497 kts | 246° |
| 2026-04-26 16:04 | 51.81371 | -71.37342 | 38243 ft | 497 kts | 246° |
| 2026-04-26 16:04 | 51.79002 | -71.47818 | 38248 ft | 496 kts | 246° |
| 2026-04-26 16:05 | 51.76624 | -71.58285 | 38247 ft | 496 kts | 246° |
| 2026-04-26 16:05 | 51.74235 | -71.68747 | 38248 ft | 496 kts | 246° |
| 2026-04-26 16:06 | 51.71839 | -71.79190 | 38244 ft | 496 kts | 246° |
| 2026-04-26 16:06 | 51.69439 | -71.89603 | 38243 ft | 495 kts | 246° |
| 2026-04-26 16:07 | 51.67026 | -72.00014 | 38246 ft | 495 kts | 246° |
| 2026-04-26 16:07 | 51.64609 | -72.10392 | 38244 ft | 495 kts | 246° |
| 2026-04-26 16:08 | 51.62183 | -72.20758 | 38240 ft | 495 kts | 246° |
| 2026-04-26 16:08 | 51.59759 | -72.31070 | 38241 ft | 496 kts | 246° |
| 2026-04-26 16:09 | 51.57310 | -72.41441 | 38245 ft | 495 kts | 246° |
| 2026-04-26 16:09 | 51.55273 | -72.50029 | 38243 ft | 493 kts | 246° |
| 2026-04-26 16:10 | 51.52824 | -72.60306 | 38246 ft | 492 kts | 246° |
| 2026-04-26 16:10 | 51.50366 | -72.70569 | 38248 ft | 492 kts | 245° |
| 2026-04-26 16:11 | 51.47895 | -72.80840 | 38250 ft | 492 kts | 246° |
| 2026-04-26 16:11 | 51.45423 | -72.91068 | 38264 ft | 491 kts | 246° |
| 2026-04-26 16:12 | 51.42961 | -73.01206 | 38262 ft | 491 kts | 246° |
| 2026-04-26 16:12 | 51.39239 | -73.16446 | 38266 ft | 489 kts | 246° |
| 2026-04-26 16:13 | 51.36745 | -73.26597 | 38269 ft | 489 kts | 246° |
| 2026-04-26 16:13 | 51.34243 | -73.36737 | 38267 ft | 489 kts | 246° |
| 2026-04-26 16:14 | 51.31733 | -73.46860 | 38274 ft | 490 kts | 246° |
| 2026-04-26 16:15 | 51.27969 | -73.61958 | 38268 ft | 489 kts | 246° |
| 2026-04-26 16:15 | 51.25444 | -73.72030 | 38272 ft | 488 kts | 246° |
| 2026-04-26 16:16 | 51.21638 | -73.87121 | 38268 ft | 488 kts | 246° |
| 2026-04-26 16:16 | 51.19093 | -73.97157 | 38271 ft | 488 kts | 246° |
| 2026-04-26 16:17 | 51.16537 | -74.07192 | 38261 ft | 488 kts | 246° |
| 2026-04-26 16:17 | 51.13989 | -74.17153 | 38264 ft | 488 kts | 246° |
| 2026-04-26 16:18 | 51.10973 | -74.32589 | 38259 ft | 488 kts | 255° |
| 2026-04-26 16:19 | 51.08775 | -74.48419 | 38257 ft | 489 kts | 256° |
| 2026-04-26 16:20 | 51.06587 | -74.64255 | 38260 ft | 488 kts | 256° |
| 2026-04-26 16:20 | 51.04357 | -74.80037 | 38261 ft | 486 kts | 256° |
| 2026-04-26 16:21 | 51.02862 | -74.90508 | 38260 ft | 485 kts | 256° |
| 2026-04-26 16:21 | 51.01360 | -75.00960 | 38266 ft | 485 kts | 256° |
| 2026-04-26 16:22 | 50.99860 | -75.11333 | 38263 ft | 485 kts | 256° |
| 2026-04-26 16:22 | 50.98339 | -75.21783 | 38266 ft | 485 kts | 256° |
| 2026-04-26 16:23 | 50.96810 | -75.32215 | 38264 ft | 485 kts | 256° |
| 2026-04-26 16:23 | 50.95272 | -75.42640 | 38265 ft | 485 kts | 256° |
| 2026-04-26 16:24 | 50.93725 | -75.53055 | 38261 ft | 485 kts | 256° |
| 2026-04-26 16:24 | 50.92171 | -75.63450 | 38260 ft | 485 kts | 256° |
| 2026-04-26 16:25 | 50.90606 | -75.73840 | 38268 ft | 484 kts | 256° |
| 2026-04-26 16:25 | 50.89036 | -75.84203 | 38260 ft | 483 kts | 256° |
| 2026-04-26 16:26 | 50.87724 | -75.92811 | 38261 ft | 483 kts | 256° |
| 2026-04-26 16:26 | 50.85881 | -76.04828 | 38259 ft | 483 kts | 256° |
| 2026-04-26 16:27 | 50.84286 | -76.15151 | 38260 ft | 483 kts | 256° |
| 2026-04-26 16:27 | 50.82692 | -76.25410 | 38256 ft | 483 kts | 256° |
| 2026-04-26 16:28 | 50.81079 | -76.35721 | 38257 ft | 482 kts | 256° |
| 2026-04-26 16:28 | 50.79460 | -76.46003 | 38240 ft | 482 kts | 256° |
| 2026-04-26 16:29 | 50.77832 | -76.56281 | 38253 ft | 482 kts | 256° |
| 2026-04-26 16:29 | 50.76193 | -76.66563 | 38254 ft | 482 kts | 256° |
| 2026-04-26 16:30 | 50.74544 | -76.76847 | 38254 ft | 482 kts | 255° |
| 2026-04-26 16:30 | 50.72888 | -76.87109 | 38254 ft | 482 kts | 255° |
| 2026-04-26 16:31 | 50.71235 | -76.97289 | 38255 ft | 482 kts | 255° |
| 2026-04-26 16:31 | 50.69561 | -77.07535 | 38252 ft | 482 kts | 255° |
| 2026-04-26 16:32 | 50.68162 | -77.16049 | 38249 ft | 482 kts | 255° |
| 2026-04-26 16:32 | 50.66187 | -77.28004 | 38251 ft | 482 kts | 255° |
| 2026-04-26 16:33 | 50.64485 | -77.38236 | 38247 ft | 481 kts | 255° |
| 2026-04-26 16:33 | 50.62779 | -77.48428 | 38255 ft | 480 kts | 255° |
| 2026-04-26 16:34 | 50.61067 | -77.58599 | 38252 ft | 480 kts | 255° |
| 2026-04-26 16:34 | 50.59357 | -77.68697 | 38252 ft | 480 kts | 255° |
| 2026-04-26 16:35 | 50.57629 | -77.78839 | 38255 ft | 480 kts | 254° |
| 2026-04-26 16:35 | 50.55892 | -77.88980 | 38255 ft | 480 kts | 254° |
| 2026-04-26 16:36 | 50.55020 | -77.94048 | 38445 ft | 479 kts | 254° |
| 2026-04-26 16:36 | 50.54148 | -77.99100 | 38670 ft | 478 kts | 254° |
| 2026-04-26 16:36 | 50.53275 | -78.04145 | 38875 ft | 478 kts | 254° |
| 2026-04-26 16:36 | 50.52399 | -78.09192 | 39014 ft | 478 kts | 254° |
| 2026-04-26 16:37 | 50.51522 | -78.14233 | 39139 ft | 478 kts | 254° |
| 2026-04-26 16:37 | 50.50643 | -78.19270 | 39270 ft | 478 kts | 254° |
| 2026-04-26 16:37 | 50.49774 | -78.24236 | 39395 ft | 477 kts | 254° |
| 2026-04-26 16:37 | 50.48892 | -78.29259 | 39517 ft | 477 kts | 254° |
| 2026-04-26 16:38 | 50.48009 | -78.34280 | 39632 ft | 477 kts | 254° |
| 2026-04-26 16:38 | 50.47122 | -78.39300 | 39786 ft | 476 kts | 254° |
| 2026-04-26 16:38 | 50.46236 | -78.44307 | 39920 ft | 476 kts | 254° |
| 2026-04-26 16:38 | 50.45348 | -78.49310 | 40012 ft | 476 kts | 254° |
| 2026-04-26 16:39 | 50.44457 | -78.54313 | 40119 ft | 476 kts | 254° |
| 2026-04-26 16:39 | 50.43564 | -78.59318 | 40216 ft | 476 kts | 254° |
| 2026-04-26 16:39 | 50.41763 | -78.69362 | 40241 ft | 478 kts | 253° |
| 2026-04-26 16:40 | 50.39954 | -78.79400 | 40238 ft | 478 kts | 253° |
| 2026-04-26 16:40 | 50.38138 | -78.89420 | 40236 ft | 477 kts | 253° |
| 2026-04-26 16:41 | 50.36319 | -78.99401 | 40235 ft | 476 kts | 253° |
| 2026-04-26 16:41 | 50.34504 | -79.09306 | 40233 ft | 475 kts | 253° |
| 2026-04-26 16:42 | 50.32672 | -79.19252 | 40228 ft | 475 kts | 253° |
| 2026-04-26 16:42 | 50.30832 | -79.29186 | 40228 ft | 475 kts | 253° |
| 2026-04-26 16:43 | 50.28987 | -79.39098 | 40224 ft | 474 kts | 253° |
| 2026-04-26 16:43 | 50.27136 | -79.48985 | 40220 ft | 473 kts | 253° |
| 2026-04-26 16:44 | 50.25292 | -79.58777 | 40220 ft | 472 kts | 253° |
| 2026-04-26 16:44 | 50.23428 | -79.68630 | 40216 ft | 472 kts | 253° |
| 2026-04-26 16:45 | 50.21557 | -79.78467 | 40216 ft | 472 kts | 253° |
| 2026-04-26 16:45 | 50.19678 | -79.88296 | 40212 ft | 472 kts | 252° |
| 2026-04-26 16:46 | 50.17804 | -79.98049 | 40209 ft | 472 kts | 252° |
| 2026-04-26 16:46 | 50.15911 | -80.07850 | 40208 ft | 472 kts | 252° |
| 2026-04-26 16:47 | 50.14007 | -80.17660 | 40211 ft | 472 kts | 252° |
| 2026-04-26 16:47 | 50.12095 | -80.27453 | 40208 ft | 472 kts | 252° |
| 2026-04-26 16:48 | 50.10178 | -80.37227 | 40209 ft | 472 kts | 252° |
| 2026-04-26 16:48 | 50.08248 | -80.47016 | 40218 ft | 472 kts | 252° |
| 2026-04-26 16:49 | 50.06314 | -80.56777 | 40216 ft | 472 kts | 252° |
| 2026-04-26 16:49 | 50.04382 | -80.66478 | 40207 ft | 472 kts | 252° |
| 2026-04-26 16:50 | 50.02426 | -80.76251 | 40212 ft | 472 kts | 252° |
| 2026-04-26 16:50 | 50.00465 | -80.86000 | 40233 ft | 473 kts | 252° |
| 2026-04-26 16:51 | 49.98492 | -80.95762 | 40226 ft | 474 kts | 252° |
| 2026-04-26 16:51 | 49.96508 | -81.05527 | 40231 ft | 474 kts | 251° |
| 2026-04-26 16:52 | 49.95188 | -81.12000 | 40234 ft | 474 kts | 251° |
| 2026-04-26 16:52 | 49.92521 | -81.25011 | 40228 ft | 474 kts | 251° |
| 2026-04-26 16:53 | 49.90507 | -81.34780 | 40232 ft | 474 kts | 251° |
| 2026-04-26 16:53 | 49.88488 | -81.44520 | 40231 ft | 474 kts | 251° |
| 2026-04-26 16:54 | 49.86465 | -81.54238 | 40227 ft | 473 kts | 252° |
| 2026-04-26 16:54 | 49.84439 | -81.63926 | 40227 ft | 472 kts | 252° |
| 2026-04-26 16:55 | 49.82403 | -81.73611 | 40227 ft | 472 kts | 252° |
| 2026-04-26 16:55 | 49.80708 | -81.81639 | 40224 ft | 472 kts | 251° |
| 2026-04-26 16:56 | 49.77638 | -81.96098 | 40226 ft | 470 kts | 252° |
| 2026-04-26 16:57 | 49.75589 | -82.05689 | 40228 ft | 469 kts | 251° |
| 2026-04-26 16:57 | 49.72505 | -82.20045 | 40227 ft | 469 kts | 251° |
| 2026-04-26 16:58 | 49.70787 | -82.28000 | 40227 ft | 469 kts | 252° |
| 2026-04-26 16:59 | 49.67352 | -82.43809 | 40231 ft | 464 kts | 251° |
| 2026-04-26 17:00 | 49.63219 | -82.62676 | 40237 ft | 464 kts | 251° |
| 2026-04-26 17:00 | 49.60102 | -82.76791 | 40241 ft | 463 kts | 251° |
| 2026-04-26 17:01 | 49.58013 | -82.86196 | 40238 ft | 462 kts | 251° |
| 2026-04-26 17:01 | 49.55927 | -82.95546 | 40235 ft | 460 kts | 251° |
| 2026-04-26 17:02 | 49.53852 | -83.04806 | 40232 ft | 460 kts | 251° |
| 2026-04-26 17:02 | 49.51758 | -83.14109 | 40233 ft | 458 kts | 251° |
| 2026-04-26 17:03 | 49.49663 | -83.23377 | 40232 ft | 458 kts | 251° |
| 2026-04-26 17:03 | 49.47567 | -83.32610 | 40235 ft | 456 kts | 251° |
| 2026-04-26 17:04 | 49.45470 | -83.41805 | 40228 ft | 455 kts | 250° |
| 2026-04-26 17:04 | 49.43386 | -83.50904 | 40228 ft | 454 kts | 250° |
| 2026-04-26 17:05 | 49.41281 | -83.60057 | 40229 ft | 454 kts | 250° |
| 2026-04-26 17:05 | 49.39156 | -83.69254 | 40228 ft | 454 kts | 250° |
| 2026-04-26 17:06 | 49.37038 | -83.78387 | 40232 ft | 454 kts | 250° |
| 2026-04-26 17:06 | 49.34932 | -83.87427 | 40230 ft | 452 kts | 250° |
| 2026-04-26 17:07 | 49.32811 | -83.96492 | 40228 ft | 451 kts | 250° |
| 2026-04-26 17:07 | 49.30683 | -84.05549 | 40226 ft | 451 kts | 250° |
| 2026-04-26 17:08 | 49.28562 | -84.14540 | 40227 ft | 451 kts | 250° |
| 2026-04-26 17:08 | 49.26422 | -84.23575 | 40226 ft | 451 kts | 249° |
| 2026-04-26 17:09 | 49.24632 | -84.31104 | 40228 ft | 453 kts | 249° |
| 2026-04-26 17:09 | 49.22096 | -84.41723 | 40224 ft | 455 kts | 249° |
| 2026-04-26 17:10 | 49.19917 | -84.50805 | 40223 ft | 455 kts | 249° |
| 2026-04-26 17:10 | 49.17731 | -84.59878 | 40215 ft | 455 kts | 249° |
| 2026-04-26 17:11 | 49.15551 | -84.68890 | 40225 ft | 455 kts | 249° |
| 2026-04-26 17:11 | 49.13343 | -84.77985 | 40227 ft | 458 kts | 249° |
| 2026-04-26 17:12 | 49.09994 | -84.91702 | 40226 ft | 459 kts | 249° |
| 2026-04-26 17:13 | 49.06627 | -85.05413 | 40223 ft | 459 kts | 249° |
| 2026-04-26 17:14 | 49.03263 | -85.19023 | 40228 ft | 459 kts | 249° |
| 2026-04-26 17:14 | 48.99868 | -85.32676 | 40232 ft | 459 kts | 249° |
| 2026-04-26 17:15 | 48.96449 | -85.46339 | 40232 ft | 459 kts | 249° |
| 2026-04-26 17:16 | 48.94169 | -85.55406 | 40232 ft | 459 kts | 249° |
| 2026-04-26 17:16 | 48.91878 | -85.64481 | 40241 ft | 459 kts | 249° |
| 2026-04-26 17:17 | 48.89593 | -85.73497 | 40239 ft | 460 kts | 249° |
| 2026-04-26 17:17 | 48.87287 | -85.82559 | 40242 ft | 460 kts | 249° |
| 2026-04-26 17:18 | 48.84971 | -85.91621 | 40244 ft | 460 kts | 249° |
| 2026-04-26 17:18 | 48.82650 | -86.00672 | 40251 ft | 460 kts | 249° |
| 2026-04-26 17:19 | 48.79152 | -86.14238 | 40252 ft | 459 kts | 249° |
| 2026-04-26 17:19 | 48.76832 | -86.23193 | 40258 ft | 459 kts | 249° |
| 2026-04-26 17:20 | 48.74881 | -86.30697 | 40219 ft | 459 kts | 249° |
| 2026-04-26 17:20 | 48.72008 | -86.41132 | 40219 ft | 459 kts | 246° |
| 2026-04-26 17:21 | 48.69352 | -86.49926 | 40221 ft | 459 kts | 246° |
| 2026-04-26 17:21 | 48.66703 | -86.58695 | 40229 ft | 456 kts | 246° |
| 2026-04-26 17:22 | 48.64121 | -86.67339 | 40250 ft | 453 kts | 246° |
| 2026-04-26 17:22 | 48.61536 | -86.76014 | 40256 ft | 453 kts | 246° |
| 2026-04-26 17:23 | 48.58940 | -86.84698 | 40272 ft | 453 kts | 246° |
| 2026-04-26 17:23 | 48.56335 | -86.93381 | 40264 ft | 453 kts | 246° |
| 2026-04-26 17:24 | 48.53727 | -87.02037 | 40271 ft | 453 kts | 246° |
| 2026-04-26 17:24 | 48.51117 | -87.10671 | 40270 ft | 452 kts | 246° |
| 2026-04-26 17:25 | 48.48504 | -87.19282 | 40260 ft | 452 kts | 246° |
| 2026-04-26 17:25 | 48.45901 | -87.27834 | 40259 ft | 451 kts | 246° |
| 2026-04-26 17:26 | 48.43276 | -87.36428 | 40260 ft | 451 kts | 246° |
| 2026-04-26 17:26 | 48.40646 | -87.45006 | 40251 ft | 451 kts | 246° |
| 2026-04-26 17:27 | 48.38018 | -87.53547 | 40259 ft | 448 kts | 246° |
| 2026-04-26 17:27 | 48.35395 | -87.62043 | 40258 ft | 447 kts | 246° |
| 2026-04-26 17:28 | 48.32783 | -87.70480 | 40257 ft | 447 kts | 246° |
| 2026-04-26 17:28 | 48.30151 | -87.78950 | 40257 ft | 447 kts | 246° |
| 2026-04-26 17:29 | 48.27960 | -87.85979 | 40257 ft | 447 kts | 246° |
| 2026-04-26 17:29 | 48.24867 | -87.95868 | 40253 ft | 447 kts | 246° |
| 2026-04-26 17:30 | 48.22233 | -88.04258 | 40259 ft | 447 kts | 246° |
| 2026-04-26 17:30 | 48.19578 | -88.12689 | 40250 ft | 446 kts | 246° |
| 2026-04-26 17:31 | 48.16927 | -88.21077 | 40248 ft | 445 kts | 246° |
| 2026-04-26 17:31 | 48.14271 | -88.29451 | 40250 ft | 445 kts | 246° |
| 2026-04-26 17:32 | 48.11612 | -88.37808 | 40241 ft | 444 kts | 246° |
| 2026-04-26 17:32 | 48.08967 | -88.46094 | 40238 ft | 444 kts | 246° |
| 2026-04-26 17:33 | 48.06305 | -88.54406 | 40236 ft | 444 kts | 246° |
| 2026-04-26 17:34 | 48.02290 | -88.66892 | 40231 ft | 443 kts | 245° |
| 2026-04-26 17:34 | 47.99612 | -88.75184 | 40223 ft | 443 kts | 246° |
| 2026-04-26 17:35 | 47.96942 | -88.83424 | 40222 ft | 440 kts | 246° |
| 2026-04-26 17:35 | 47.94273 | -88.91637 | 40219 ft | 439 kts | 246° |
| 2026-04-26 17:36 | 47.91619 | -88.99777 | 40219 ft | 439 kts | 246° |
| 2026-04-26 17:36 | 47.88942 | -89.07963 | 40219 ft | 439 kts | 246° |
| 2026-04-26 17:37 | 47.86263 | -89.16128 | 40227 ft | 439 kts | 245° |
| 2026-04-26 17:37 | 47.83569 | -89.24315 | 40217 ft | 440 kts | 245° |
| 2026-04-26 17:38 | 47.79512 | -89.36585 | 40211 ft | 440 kts | 246° |
| 2026-04-26 17:38 | 47.76808 | -89.44727 | 40219 ft | 437 kts | 246° |
| 2026-04-26 17:39 | 47.74114 | -89.52820 | 40221 ft | 437 kts | 246° |
| 2026-04-26 17:39 | 47.71416 | -89.60903 | 40221 ft | 437 kts | 245° |
| 2026-04-26 17:40 | 47.69625 | -89.66254 | 40226 ft | 437 kts | 245° |
| 2026-04-26 17:40 | 47.66017 | -89.77000 | 40225 ft | 437 kts | 245° |
| 2026-04-26 17:41 | 47.63297 | -89.85070 | 40222 ft | 437 kts | 245° |
| 2026-04-26 17:41 | 47.60575 | -89.93120 | 40222 ft | 437 kts | 245° |
| 2026-04-26 17:42 | 47.58304 | -89.99816 | 40215 ft | 437 kts | 245° |
| 2026-04-26 17:42 | 47.55567 | -90.07865 | 40220 ft | 438 kts | 245° |
| 2026-04-26 17:43 | 47.52823 | -90.15910 | 40221 ft | 438 kts | 245° |
| 2026-04-26 17:43 | 47.50081 | -90.23925 | 40223 ft | 438 kts | 245° |
| 2026-04-26 17:44 | 47.47324 | -90.31958 | 40222 ft | 438 kts | 245° |
| 2026-04-26 17:44 | 47.44568 | -90.39961 | 40219 ft | 438 kts | 245° |
| 2026-04-26 17:45 | 47.41789 | -90.48009 | 40222 ft | 439 kts | 245° |
| 2026-04-26 17:45 | 47.39027 | -90.55981 | 40217 ft | 439 kts | 244° |
| 2026-04-26 17:46 | 47.36240 | -90.64005 | 40216 ft | 439 kts | 245° |
| 2026-04-26 17:46 | 47.33445 | -90.72024 | 40220 ft | 438 kts | 244° |
| 2026-04-26 17:47 | 47.31125 | -90.78663 | 40221 ft | 438 kts | 244° |
| 2026-04-26 17:47 | 47.27855 | -90.87992 | 40216 ft | 439 kts | 244° |
| 2026-04-26 17:48 | 47.25042 | -90.95991 | 40216 ft | 440 kts | 244° |
| 2026-04-26 17:48 | 47.22234 | -91.03949 | 40215 ft | 440 kts | 244° |
| 2026-04-26 17:49 | 47.19404 | -91.11946 | 40217 ft | 440 kts | 244° |
| 2026-04-26 17:49 | 47.16573 | -91.19923 | 40197 ft | 440 kts | 244° |
| 2026-04-26 17:50 | 47.13736 | -91.27890 | 40218 ft | 440 kts | 244° |
| 2026-04-26 17:50 | 47.10896 | -91.35845 | 40208 ft | 440 kts | 244° |
| 2026-04-26 17:51 | 47.08042 | -91.43814 | 40203 ft | 440 kts | 244° |
| 2026-04-26 17:51 | 47.05186 | -91.51764 | 40197 ft | 440 kts | 244° |
| 2026-04-26 17:52 | 47.02345 | -91.59649 | 40175 ft | 440 kts | 244° |
| 2026-04-26 17:52 | 46.99477 | -91.67586 | 40181 ft | 441 kts | 244° |
| 2026-04-26 17:53 | 46.96600 | -91.75524 | 40181 ft | 442 kts | 244° |
| 2026-04-26 17:54 | 46.92271 | -91.87421 | 40188 ft | 440 kts | 244° |
| 2026-04-26 17:54 | 46.89386 | -91.95323 | 40190 ft | 440 kts | 244° |
| 2026-04-26 17:55 | 46.86499 | -92.03207 | 40184 ft | 440 kts | 244° |
| 2026-04-26 17:55 | 46.83604 | -92.11090 | 40183 ft | 440 kts | 243° |
| 2026-04-26 17:56 | 46.80698 | -92.18980 | 40184 ft | 441 kts | 243° |
| 2026-04-26 17:57 | 46.75132 | -92.34859 | 40159 ft | 440 kts | 245° |
| 2026-04-26 17:57 | 46.72395 | -92.42850 | 40154 ft | 440 kts | 245° |
| 2026-04-26 17:58 | 46.66850 | -92.58781 | 40155 ft | 441 kts | 244° |
| 2026-04-26 17:59 | 46.62682 | -92.70664 | 40164 ft | 441 kts | 244° |
| 2026-04-26 17:59 | 46.59885 | -92.78610 | 40173 ft | 441 kts | 244° |
| 2026-04-26 18:00 | 46.57088 | -92.86536 | 40173 ft | 440 kts | 244° |
| 2026-04-26 18:00 | 46.54299 | -92.94416 | 40167 ft | 440 kts | 244° |
| 2026-04-26 18:01 | 46.51490 | -93.02327 | 40159 ft | 440 kts | 244° |
| 2026-04-26 18:01 | 46.48680 | -93.10215 | 40159 ft | 439 kts | 244° |
| 2026-04-26 18:02 | 46.46344 | -93.16759 | 40158 ft | 439 kts | 244° |
| 2026-04-26 18:02 | 46.43047 | -93.25965 | 40162 ft | 439 kts | 244° |
| 2026-04-26 18:03 | 46.40244 | -93.33770 | 40163 ft | 439 kts | 244° |
| 2026-04-26 18:03 | 46.37416 | -93.41616 | 40159 ft | 439 kts | 244° |
| 2026-04-26 18:04 | 46.34581 | -93.49461 | 40157 ft | 440 kts | 244° |
| 2026-04-26 18:05 | 46.30311 | -93.61231 | 40145 ft | 439 kts | 243° |
| 2026-04-26 18:05 | 46.27486 | -93.68990 | 40150 ft | 438 kts | 243° |
| 2026-04-26 18:06 | 46.24644 | -93.76774 | 40147 ft | 437 kts | 243° |
| 2026-04-26 18:06 | 46.21802 | -93.84538 | 40148 ft | 437 kts | 243° |
| 2026-04-26 18:07 | 46.18944 | -93.92320 | 40149 ft | 437 kts | 243° |
| 2026-04-26 18:07 | 46.16084 | -94.00087 | 40143 ft | 438 kts | 243° |
| 2026-04-26 18:08 | 46.13238 | -94.07793 | 40118 ft | 438 kts | 243° |
| 2026-04-26 18:08 | 46.10362 | -94.15558 | 40108 ft | 439 kts | 243° |
| 2026-04-26 18:09 | 46.07484 | -94.23306 | 40099 ft | 438 kts | 243° |
| 2026-04-26 18:09 | 46.04606 | -94.31030 | 40100 ft | 437 kts | 243° |
| 2026-04-26 18:10 | 46.01732 | -94.38724 | 40138 ft | 437 kts | 243° |
| 2026-04-26 18:10 | 45.98857 | -94.46400 | 40136 ft | 438 kts | 243° |
| 2026-04-26 18:11 | 45.95958 | -94.54116 | 40135 ft | 438 kts | 243° |
| 2026-04-26 18:11 | 45.93054 | -94.61823 | 40130 ft | 438 kts | 243° |
| 2026-04-26 18:12 | 45.90165 | -94.69469 | 40112 ft | 438 kts | 243° |
| 2026-04-26 18:12 | 45.87248 | -94.77167 | 40124 ft | 439 kts | 243° |
| 2026-04-26 18:13 | 45.84325 | -94.84860 | 40119 ft | 438 kts | 242° |
| 2026-04-26 18:13 | 45.81398 | -94.92544 | 40120 ft | 438 kts | 242° |
| 2026-04-26 18:14 | 45.78485 | -95.00165 | 40119 ft | 438 kts | 242° |
| 2026-04-26 18:14 | 45.75550 | -95.07826 | 40120 ft | 438 kts | 242° |
| 2026-04-26 18:15 | 45.72608 | -95.15482 | 40121 ft | 438 kts | 242° |
| 2026-04-26 18:15 | 45.69664 | -95.23122 | 40102 ft | 438 kts | 242° |
| 2026-04-26 18:16 | 45.66731 | -95.30713 | 40104 ft | 438 kts | 242° |
| 2026-04-26 18:16 | 45.62301 | -95.42139 | 40100 ft | 438 kts | 242° |
| 2026-04-26 18:17 | 45.59343 | -95.49742 | 40103 ft | 437 kts | 242° |
| 2026-04-26 18:17 | 45.56387 | -95.57318 | 40110 ft | 437 kts | 242° |
| 2026-04-26 18:18 | 45.53424 | -95.64894 | 40101 ft | 437 kts | 242° |
| 2026-04-26 18:18 | 45.50460 | -95.72450 | 40098 ft | 437 kts | 242° |
| 2026-04-26 18:19 | 45.47489 | -95.80003 | 40090 ft | 437 kts | 242° |
| 2026-04-26 18:19 | 45.44509 | -95.87557 | 40088 ft | 437 kts | 242° |
| 2026-04-26 18:20 | 45.41543 | -95.95057 | 40093 ft | 436 kts | 242° |
| 2026-04-26 18:20 | 45.39546 | -96.00094 | 40100 ft | 436 kts | 241° |
| 2026-04-26 18:21 | 45.35573 | -96.10091 | 40097 ft | 436 kts | 241° |
| 2026-04-26 18:21 | 45.32601 | -96.17543 | 40093 ft | 436 kts | 241° |
| 2026-04-26 18:22 | 45.29590 | -96.25075 | 40084 ft | 436 kts | 241° |
| 2026-04-26 18:22 | 45.26611 | -96.32507 | 40081 ft | 436 kts | 241° |
| 2026-04-26 18:23 | 45.23607 | -96.39981 | 40086 ft | 436 kts | 241° |
| 2026-04-26 18:23 | 45.20597 | -96.47448 | 40082 ft | 436 kts | 241° |
| 2026-04-26 18:24 | 45.17582 | -96.54909 | 40094 ft | 435 kts | 241° |
| 2026-04-26 18:24 | 45.14581 | -96.62316 | 40102 ft | 436 kts | 241° |
| 2026-04-26 18:25 | 45.11558 | -96.69757 | 40102 ft | 436 kts | 241° |
| 2026-04-26 18:25 | 45.08526 | -96.77202 | 40097 ft | 436 kts | 240° |
| 2026-04-26 18:26 | 45.05493 | -96.84626 | 40097 ft | 436 kts | 240° |
| 2026-04-26 18:26 | 45.02455 | -96.92047 | 40098 ft | 436 kts | 240° |
| 2026-04-26 18:27 | 44.99430 | -96.99414 | 40054 ft | 436 kts | 240° |
| 2026-04-26 18:27 | 44.96373 | -97.06839 | 40040 ft | 436 kts | 240° |
| 2026-04-26 18:28 | 44.93319 | -97.14239 | 40045 ft | 436 kts | 240° |
| 2026-04-26 18:28 | 44.90259 | -97.21633 | 40045 ft | 436 kts | 240° |
| 2026-04-26 18:29 | 44.87193 | -97.29024 | 40047 ft | 436 kts | 240° |
| 2026-04-26 18:29 | 44.84146 | -97.36348 | 40053 ft | 436 kts | 240° |
| 2026-04-26 18:30 | 44.81068 | -97.43728 | 40057 ft | 436 kts | 240° |
| 2026-04-26 18:30 | 44.77989 | -97.51089 | 40069 ft | 436 kts | 240° |
| 2026-04-26 18:31 | 44.74906 | -97.58442 | 40077 ft | 436 kts | 240° |
| 2026-04-26 18:31 | 44.72340 | -97.64549 | 40060 ft | 437 kts | 240° |
| 2026-04-26 18:32 | 44.69247 | -97.71892 | 40061 ft | 436 kts | 240° |
| 2026-04-26 18:32 | 44.66148 | -97.79229 | 40056 ft | 436 kts | 240° |
| 2026-04-26 18:33 | 44.63049 | -97.86547 | 40058 ft | 436 kts | 240° |
| 2026-04-26 18:33 | 44.59938 | -97.93875 | 40053 ft | 436 kts | 240° |
| 2026-04-26 18:34 | 44.56819 | -98.01204 | 40049 ft | 437 kts | 239° |
| 2026-04-26 18:34 | 44.53697 | -98.08518 | 40042 ft | 437 kts | 239° |
| 2026-04-26 18:35 | 44.50574 | -98.15820 | 40039 ft | 437 kts | 239° |
| 2026-04-26 18:35 | 44.47444 | -98.23116 | 40035 ft | 437 kts | 239° |
| 2026-04-26 18:36 | 44.44313 | -98.30399 | 40036 ft | 437 kts | 239° |
| 2026-04-26 18:36 | 44.41147 | -98.37595 | 40037 ft | 437 kts | 238° |
| 2026-04-26 18:37 | 44.37878 | -98.44764 | 40050 ft | 437 kts | 238° |
| 2026-04-26 18:37 | 44.34602 | -98.51936 | 40050 ft | 437 kts | 238° |
| 2026-04-26 18:38 | 44.31341 | -98.59101 | 40050 ft | 437 kts | 238° |
| 2026-04-26 18:38 | 44.28083 | -98.66261 | 40039 ft | 437 kts | 238° |
| 2026-04-26 18:39 | 44.24820 | -98.73416 | 40053 ft | 437 kts | 238° |
| 2026-04-26 18:39 | 44.21578 | -98.80506 | 40048 ft | 436 kts | 238° |
| 2026-04-26 18:40 | 44.18311 | -98.87631 | 40042 ft | 437 kts | 238° |
| 2026-04-26 18:40 | 44.15030 | -98.94769 | 40034 ft | 436 kts | 238° |
| 2026-04-26 18:41 | 44.11756 | -99.01874 | 40036 ft | 436 kts | 238° |
| 2026-04-26 18:41 | 44.08472 | -99.08985 | 40035 ft | 436 kts | 238° |
| 2026-04-26 18:42 | 44.05183 | -99.16087 | 40011 ft | 437 kts | 237° |
| 2026-04-26 18:42 | 44.01888 | -99.23187 | 40032 ft | 437 kts | 237° |
| 2026-04-26 18:43 | 43.98585 | -99.30285 | 40024 ft | 437 kts | 237° |
| 2026-04-26 18:43 | 43.95303 | -99.37322 | 40026 ft | 437 kts | 237° |
| 2026-04-26 18:44 | 43.91993 | -99.44400 | 40020 ft | 437 kts | 237° |
| 2026-04-26 18:44 | 43.88673 | -99.51483 | 40019 ft | 438 kts | 237° |
| 2026-04-26 18:45 | 43.85347 | -99.58562 | 40012 ft | 438 kts | 237° |
| 2026-04-26 18:45 | 43.82014 | -99.65639 | 40012 ft | 438 kts | 237° |
| 2026-04-26 18:46 | 43.78674 | -99.72712 | 40009 ft | 439 kts | 237° |
| 2026-04-26 18:46 | 43.75330 | -99.79778 | 40008 ft | 439 kts | 237° |
| 2026-04-26 18:47 | 43.72003 | -99.86791 | 40006 ft | 439 kts | 237° |
| 2026-04-26 18:47 | 43.68647 | -99.93847 | 40003 ft | 439 kts | 237° |
| 2026-04-26 18:48 | 43.65284 | -100.00903 | 39997 ft | 439 kts | 237° |
| 2026-04-26 18:48 | 43.61914 | -100.07954 | 39996 ft | 439 kts | 237° |
| 2026-04-26 18:49 | 43.58545 | -100.14988 | 39991 ft | 439 kts | 237° |
| 2026-04-26 18:49 | 43.55167 | -100.22023 | 39996 ft | 440 kts | 237° |
| 2026-04-26 18:50 | 43.51807 | -100.29004 | 39991 ft | 440 kts | 237° |
| 2026-04-26 18:50 | 43.48423 | -100.36018 | 39991 ft | 440 kts | 236° |
| 2026-04-26 18:51 | 43.45030 | -100.43033 | 39990 ft | 440 kts | 236° |
| 2026-04-26 18:51 | 43.41634 | -100.50037 | 39972 ft | 440 kts | 236° |
| 2026-04-26 18:52 | 43.38235 | -100.57034 | 39953 ft | 440 kts | 236° |
| 2026-04-26 18:52 | 43.34826 | -100.64032 | 39933 ft | 441 kts | 236° |
| 2026-04-26 18:53 | 43.31409 | -100.71029 | 39910 ft | 441 kts | 236° |
| 2026-04-26 18:53 | 43.27985 | -100.78027 | 39907 ft | 441 kts | 236° |
| 2026-04-26 18:54 | 43.24582 | -100.84965 | 39906 ft | 441 kts | 236° |
| 2026-04-26 18:54 | 43.21154 | -100.91936 | 39906 ft | 441 kts | 236° |
| 2026-04-26 18:55 | 43.17718 | -100.98907 | 39915 ft | 441 kts | 236° |
| 2026-04-26 18:55 | 43.14287 | -101.05852 | 39931 ft | 441 kts | 236° |
| 2026-04-26 18:56 | 43.10849 | -101.12794 | 39944 ft | 441 kts | 236° |
| 2026-04-26 18:56 | 43.07397 | -101.19749 | 39945 ft | 441 kts | 236° |
| 2026-04-26 18:57 | 43.04526 | -101.25520 | 39966 ft | 441 kts | 236° |
| 2026-04-26 18:57 | 43.00502 | -101.33591 | 39970 ft | 442 kts | 236° |
| 2026-04-26 18:58 | 42.97031 | -101.40536 | 39963 ft | 442 kts | 236° |
| 2026-04-26 18:58 | 42.93556 | -101.47471 | 39960 ft | 442 kts | 236° |
| 2026-04-26 18:59 | 42.90096 | -101.54360 | 39957 ft | 442 kts | 236° |
| 2026-04-26 18:59 | 42.86612 | -101.61281 | 39955 ft | 442 kts | 236° |
| 2026-04-26 19:00 | 42.83125 | -101.68194 | 39957 ft | 442 kts | 236° |
| 2026-04-26 19:00 | 42.79635 | -101.75094 | 39943 ft | 442 kts | 236° |
| 2026-04-26 19:01 | 42.76143 | -101.81984 | 39929 ft | 442 kts | 236° |
| 2026-04-26 19:01 | 42.72638 | -101.88883 | 39914 ft | 442 kts | 236° |
| 2026-04-26 19:02 | 42.69134 | -101.95764 | 39905 ft | 442 kts | 236° |
| 2026-04-26 19:02 | 42.66223 | -102.01468 | 39903 ft | 442 kts | 236° |
| 2026-04-26 19:03 | 42.62139 | -102.09455 | 39902 ft | 442 kts | 235° |
| 2026-04-26 19:03 | 42.58625 | -102.16307 | 39908 ft | 442 kts | 235° |
| 2026-04-26 19:04 | 42.55112 | -102.23144 | 39930 ft | 441 kts | 235° |
| 2026-04-26 19:04 | 42.51600 | -102.29961 | 39929 ft | 441 kts | 235° |
| 2026-04-26 19:05 | 42.46343 | -102.40139 | 39925 ft | 441 kts | 235° |
| 2026-04-26 19:06 | 42.42815 | -102.46950 | 39924 ft | 441 kts | 235° |
| 2026-04-26 19:06 | 42.39283 | -102.53752 | 39915 ft | 442 kts | 235° |
| 2026-04-26 19:07 | 42.35743 | -102.60555 | 39912 ft | 442 kts | 235° |
| 2026-04-26 19:07 | 42.32223 | -102.67305 | 39908 ft | 441 kts | 235° |
| 2026-04-26 19:08 | 42.28681 | -102.74082 | 39906 ft | 441 kts | 235° |
| 2026-04-26 19:08 | 42.25134 | -102.80852 | 39909 ft | 441 kts | 235° |
| 2026-04-26 19:09 | 42.21581 | -102.87619 | 39909 ft | 442 kts | 235° |
| 2026-04-26 19:09 | 42.18022 | -102.94382 | 39856 ft | 442 kts | 235° |
| 2026-04-26 19:10 | 42.14458 | -103.01140 | 39855 ft | 442 kts | 235° |
| 2026-04-26 19:10 | 42.10910 | -103.07851 | 39863 ft | 442 kts | 235° |
| 2026-04-26 19:11 | 42.07329 | -103.14611 | 39907 ft | 442 kts | 235° |
| 2026-04-26 19:11 | 42.03754 | -103.21345 | 39898 ft | 442 kts | 234° |
| 2026-04-26 19:12 | 42.00169 | -103.28081 | 39878 ft | 442 kts | 234° |
| 2026-04-26 19:12 | 41.96608 | -103.34758 | 39862 ft | 442 kts | 234° |
| 2026-04-26 19:13 | 41.93019 | -103.41473 | 39845 ft | 442 kts | 234° |
| 2026-04-26 19:13 | 41.89698 | -103.48413 | 39832 ft | 442 kts | 243° |
| 2026-04-26 19:14 | 41.87494 | -103.56116 | 39832 ft | 443 kts | 250° |
| 2026-04-26 19:14 | 41.85609 | -103.63996 | 39831 ft | 443 kts | 251° |
| 2026-04-26 19:15 | 41.83761 | -103.71891 | 39834 ft | 443 kts | 251° |
| 2026-04-26 19:15 | 41.81903 | -103.79729 | 39839 ft | 443 kts | 251° |
| 2026-04-26 19:16 | 41.80017 | -103.87588 | 39853 ft | 443 kts | 250° |
| 2026-04-26 19:16 | 41.78118 | -103.95452 | 39841 ft | 444 kts | 250° |
| 2026-04-26 19:17 | 41.76212 | -104.03320 | 39839 ft | 444 kts | 250° |
| 2026-04-26 19:17 | 41.74302 | -104.11184 | 39813 ft | 444 kts | 250° |
| 2026-04-26 19:18 | 41.72383 | -104.19056 | 39805 ft | 444 kts | 250° |
| 2026-04-26 19:18 | 41.70464 | -104.26905 | 39794 ft | 444 kts | 250° |
| 2026-04-26 19:19 | 41.68537 | -104.34757 | 39796 ft | 444 kts | 250° |
| 2026-04-26 19:19 | 41.66931 | -104.41283 | 39793 ft | 444 kts | 250° |
| 2026-04-26 19:20 | 41.64680 | -104.50397 | 39789 ft | 444 kts | 250° |
| 2026-04-26 19:20 | 41.63053 | -104.56966 | 39789 ft | 444 kts | 250° |
| 2026-04-26 19:21 | 41.61117 | -104.64755 | 39776 ft | 444 kts | 250° |
| 2026-04-26 19:21 | 41.59163 | -104.72594 | 39777 ft | 444 kts | 250° |
| 2026-04-26 19:22 | 41.57205 | -104.80416 | 39778 ft | 444 kts | 250° |
| 2026-04-26 19:22 | 41.55239 | -104.88247 | 39771 ft | 444 kts | 250° |
| 2026-04-26 19:23 | 41.53284 | -104.96013 | 39758 ft | 444 kts | 250° |
| 2026-04-26 19:23 | 41.51309 | -105.03826 | 39754 ft | 444 kts | 250° |
| 2026-04-26 19:24 | 41.49330 | -105.11632 | 39719 ft | 444 kts | 250° |
| 2026-04-26 19:24 | 41.46357 | -105.23311 | 39699 ft | 444 kts | 250° |
| 2026-04-26 19:25 | 41.44699 | -105.29798 | 39713 ft | 444 kts | 250° |
| 2026-04-26 19:25 | 41.42368 | -105.38894 | 39693 ft | 444 kts | 250° |
| 2026-04-26 19:26 | 41.40378 | -105.46630 | 39699 ft | 444 kts | 250° |
| 2026-04-26 19:26 | 41.38372 | -105.54400 | 39704 ft | 444 kts | 250° |
| 2026-04-26 19:27 | 41.36358 | -105.62182 | 39708 ft | 444 kts | 250° |
| 2026-04-26 19:27 | 41.34119 | -105.69843 | 39711 ft | 443 kts | 242° |
| 2026-04-26 19:28 | 41.30621 | -105.76562 | 39707 ft | 442 kts | 230° |
| 2026-04-26 19:28 | 41.26498 | -105.82562 | 39699 ft | 443 kts | 228° |
| 2026-04-26 19:29 | 41.22244 | -105.88501 | 39677 ft | 443 kts | 227° |
| 2026-04-26 19:29 | 41.17994 | -105.94438 | 39614 ft | 442 kts | 228° |
| 2026-04-26 19:30 | 41.13793 | -106.00338 | 39623 ft | 442 kts | 227° |
| 2026-04-26 19:30 | 41.10254 | -106.05314 | 39625 ft | 443 kts | 228° |
| 2026-04-26 19:31 | 41.05324 | -106.12231 | 39592 ft | 443 kts | 227° |
| 2026-04-26 19:31 | 41.01092 | -106.18157 | 39614 ft | 442 kts | 227° |
| 2026-04-26 19:32 | 40.96851 | -106.24081 | 39621 ft | 442 kts | 227° |
| 2026-04-26 19:32 | 40.92646 | -106.29944 | 39625 ft | 442 kts | 227° |
| 2026-04-26 19:33 | 40.88403 | -106.35848 | 39637 ft | 442 kts | 227° |
| 2026-04-26 19:33 | 40.84162 | -106.41738 | 39636 ft | 443 kts | 227° |
| 2026-04-26 19:34 | 40.79909 | -106.47632 | 39634 ft | 442 kts | 227° |
| 2026-04-26 19:34 | 40.75692 | -106.53464 | 39645 ft | 441 kts | 227° |
| 2026-04-26 19:35 | 40.71447 | -106.59325 | 39672 ft | 441 kts | 227° |
| 2026-04-26 19:35 | 40.67205 | -106.65171 | 39697 ft | 441 kts | 227° |
| 2026-04-26 19:36 | 40.63676 | -106.70023 | 39721 ft | 441 kts | 227° |
| 2026-04-26 19:36 | 40.58702 | -106.76850 | 39732 ft | 442 kts | 227° |
| 2026-04-26 19:37 | 40.54448 | -106.82676 | 39739 ft | 443 kts | 227° |
| 2026-04-26 19:37 | 40.50173 | -106.88518 | 39691 ft | 443 kts | 227° |
| 2026-04-26 19:38 | 40.45898 | -106.94351 | 39712 ft | 443 kts | 227° |
| 2026-04-26 19:38 | 40.41639 | -107.00151 | 39724 ft | 443 kts | 227° |
| 2026-04-26 19:39 | 40.37353 | -107.05976 | 39741 ft | 443 kts | 227° |
| 2026-04-26 19:39 | 40.33064 | -107.11792 | 39725 ft | 444 kts | 227° |
| 2026-04-26 19:40 | 40.28769 | -107.17607 | 39719 ft | 444 kts | 227° |
| 2026-04-26 19:40 | 40.24461 | -107.23427 | 39689 ft | 444 kts | 227° |
| 2026-04-26 19:41 | 40.20156 | -107.29230 | 39684 ft | 444 kts | 227° |
| 2026-04-26 19:41 | 40.16574 | -107.34053 | 39660 ft | 444 kts | 227° |
| 2026-04-26 19:42 | 40.11557 | -107.40792 | 39653 ft | 445 kts | 227° |
| 2026-04-26 19:42 | 40.07227 | -107.46596 | 39663 ft | 447 kts | 227° |
| 2026-04-26 19:43 | 40.02882 | -107.52411 | 39645 ft | 447 kts | 227° |
| 2026-04-26 19:43 | 39.98525 | -107.58228 | 39648 ft | 447 kts | 227° |
| 2026-04-26 19:44 | 39.94206 | -107.63983 | 39632 ft | 446 kts | 227° |
| 2026-04-26 19:44 | 39.89868 | -107.69754 | 39631 ft | 445 kts | 227° |
| 2026-04-26 19:45 | 39.85534 | -107.75508 | 39652 ft | 445 kts | 227° |
| 2026-04-26 19:45 | 39.81204 | -107.81246 | 39668 ft | 443 kts | 227° |
| 2026-04-26 19:46 | 39.76878 | -107.86968 | 39672 ft | 444 kts | 227° |
| 2026-04-26 19:46 | 39.72545 | -107.92689 | 39642 ft | 443 kts | 227° |
| 2026-04-26 19:47 | 39.68949 | -107.97428 | 39620 ft | 442 kts | 227° |
| 2026-04-26 19:47 | 39.63935 | -108.04022 | 39626 ft | 441 kts | 227° |
| 2026-04-26 19:48 | 39.59615 | -108.09692 | 39626 ft | 441 kts | 227° |
| 2026-04-26 19:48 | 39.55297 | -108.15349 | 39628 ft | 441 kts | 227° |
| 2026-04-26 19:49 | 39.50974 | -108.21003 | 39628 ft | 441 kts | 227° |
| 2026-04-26 19:49 | 39.46646 | -108.26652 | 39623 ft | 441 kts | 227° |
| 2026-04-26 19:50 | 39.42324 | -108.32285 | 39621 ft | 441 kts | 227° |
| 2026-04-26 19:50 | 39.38022 | -108.37886 | 39631 ft | 441 kts | 227° |
| 2026-04-26 19:51 | 39.33692 | -108.43503 | 39701 ft | 441 kts | 227° |
| 2026-04-26 19:51 | 39.29343 | -108.49134 | 39716 ft | 443 kts | 227° |
| 2026-04-26 19:52 | 39.24986 | -108.54766 | 39739 ft | 443 kts | 227° |
| 2026-04-26 19:52 | 39.20621 | -108.60399 | 39751 ft | 443 kts | 227° |
| 2026-04-26 19:53 | 39.16290 | -108.65979 | 39746 ft | 443 kts | 227° |
| 2026-04-26 19:53 | 39.11925 | -108.71593 | 39728 ft | 443 kts | 227° |
| 2026-04-26 19:54 | 39.07561 | -108.77195 | 39618 ft | 443 kts | 226° |
| 2026-04-26 19:54 | 39.03298 | -108.82905 | 39619 ft | 440 kts | 230° |
| 2026-04-26 19:55 | 38.99279 | -108.88831 | 39625 ft | 439 kts | 230° |
| 2026-04-26 19:55 | 38.95230 | -108.94722 | 39628 ft | 439 kts | 230° |
| 2026-04-26 19:56 | 38.91171 | -109.00581 | 39623 ft | 439 kts | 230° |
| 2026-04-26 19:56 | 38.87100 | -109.06435 | 39628 ft | 439 kts | 230° |
| 2026-04-26 19:57 | 38.83033 | -109.12269 | 39634 ft | 439 kts | 230° |
| 2026-04-26 19:57 | 38.78979 | -109.18074 | 39627 ft | 440 kts | 230° |
| 2026-04-26 19:58 | 38.74888 | -109.23921 | 39639 ft | 440 kts | 230° |
| 2026-04-26 19:58 | 38.70791 | -109.29764 | 39635 ft | 441 kts | 230° |
| 2026-04-26 19:59 | 38.66687 | -109.35604 | 39633 ft | 441 kts | 230° |
| 2026-04-26 19:59 | 38.62584 | -109.41439 | 39639 ft | 441 kts | 230° |
| 2026-04-26 20:00 | 38.58502 | -109.47229 | 39638 ft | 440 kts | 230° |
| 2026-04-26 20:00 | 38.54407 | -109.53026 | 39635 ft | 439 kts | 230° |
| 2026-04-26 20:01 | 38.50300 | -109.58828 | 39635 ft | 440 kts | 230° |
| 2026-04-26 20:01 | 38.46199 | -109.64614 | 39634 ft | 440 kts | 230° |
| 2026-04-26 20:02 | 38.42089 | -109.70404 | 39628 ft | 440 kts | 230° |
| 2026-04-26 20:02 | 38.39363 | -109.74236 | 39628 ft | 440 kts | 230° |
| 2026-04-26 20:03 | 38.33859 | -109.81960 | 39626 ft | 440 kts | 230° |
| 2026-04-26 20:03 | 38.29767 | -109.87689 | 39628 ft | 440 kts | 230° |
| 2026-04-26 20:04 | 38.25660 | -109.93430 | 39628 ft | 437 kts | 230° |
| 2026-04-26 20:04 | 38.21561 | -109.99150 | 39629 ft | 437 kts | 230° |
| 2026-04-26 20:05 | 38.17457 | -110.04867 | 39638 ft | 437 kts | 230° |
| 2026-04-26 20:05 | 38.13351 | -110.10576 | 39636 ft | 437 kts | 230° |
| 2026-04-26 20:06 | 38.09248 | -110.16270 | 39633 ft | 437 kts | 230° |
| 2026-04-26 20:06 | 38.05158 | -110.21936 | 39639 ft | 438 kts | 230° |
| 2026-04-26 20:07 | 38.01041 | -110.27630 | 39628 ft | 438 kts | 230° |
| 2026-04-26 20:07 | 37.96920 | -110.33318 | 39638 ft | 436 kts | 230° |
| 2026-04-26 20:08 | 37.93508 | -110.38019 | 39647 ft | 436 kts | 230° |
| 2026-04-26 20:08 | 37.89397 | -110.43676 | 39645 ft | 436 kts | 230° |
| 2026-04-26 20:09 | 37.85289 | -110.49317 | 39647 ft | 436 kts | 230° |
| 2026-04-26 20:09 | 37.81173 | -110.54962 | 39650 ft | 436 kts | 229° |
| 2026-04-26 20:10 | 37.77059 | -110.60591 | 39654 ft | 436 kts | 229° |
| 2026-04-26 20:10 | 37.72935 | -110.66227 | 39650 ft | 436 kts | 229° |
| 2026-04-26 20:11 | 37.68815 | -110.71845 | 39650 ft | 435 kts | 229° |
| 2026-04-26 20:12 | 37.62684 | -110.80189 | 39648 ft | 433 kts | 229° |
| 2026-04-26 20:12 | 37.58579 | -110.85762 | 39657 ft | 434 kts | 230° |
| 2026-04-26 20:13 | 37.54468 | -110.91337 | 39659 ft | 433 kts | 229° |
| 2026-04-26 20:13 | 37.50363 | -110.96890 | 39664 ft | 434 kts | 229° |
| 2026-04-26 20:14 | 37.46246 | -111.02451 | 39655 ft | 434 kts | 229° |
| 2026-04-26 20:14 | 37.42126 | -111.08006 | 39663 ft | 434 kts | 229° |
| 2026-04-26 20:15 | 37.38037 | -111.13511 | 39654 ft | 432 kts | 229° |
| 2026-04-26 20:15 | 37.33919 | -111.19043 | 39670 ft | 435 kts | 230° |
| 2026-04-26 20:16 | 37.29779 | -111.24599 | 39667 ft | 435 kts | 229° |
| 2026-04-26 20:16 | 37.25637 | -111.30145 | 39679 ft | 436 kts | 229° |
| 2026-04-26 20:17 | 37.21484 | -111.35698 | 39713 ft | 436 kts | 229° |
| 2026-04-26 20:17 | 37.17328 | -111.41245 | 39735 ft | 436 kts | 229° |
| 2026-04-26 20:18 | 37.13173 | -111.46780 | 39754 ft | 436 kts | 229° |
| 2026-04-26 20:18 | 37.09021 | -111.52301 | 39770 ft | 434 kts | 229° |
| 2026-04-26 20:19 | 37.04913 | -111.57756 | 39685 ft | 432 kts | 229° |
| 2026-04-26 20:19 | 37.00782 | -111.63231 | 39685 ft | 432 kts | 229° |
| 2026-04-26 20:20 | 36.96646 | -111.68704 | 39690 ft | 432 kts | 229° |
| 2026-04-26 20:20 | 36.92516 | -111.74161 | 39688 ft | 432 kts | 229° |
| 2026-04-26 20:21 | 36.88382 | -111.79613 | 39702 ft | 432 kts | 229° |
| 2026-04-26 20:21 | 36.84253 | -111.85048 | 39703 ft | 430 kts | 229° |
| 2026-04-26 20:22 | 36.80137 | -111.90459 | 39688 ft | 429 kts | 229° |
| 2026-04-26 20:22 | 36.76041 | -111.95832 | 39715 ft | 426 kts | 229° |
| 2026-04-26 20:23 | 36.71961 | -112.01177 | 39722 ft | 425 kts | 229° |
| 2026-04-26 20:23 | 36.67884 | -112.06511 | 39737 ft | 425 kts | 229° |
| 2026-04-26 20:24 | 36.63801 | -112.11842 | 39733 ft | 425 kts | 229° |
| 2026-04-26 20:24 | 36.59737 | -112.17139 | 39743 ft | 427 kts | 229° |
| 2026-04-26 20:25 | 36.55621 | -112.22497 | 39758 ft | 428 kts | 229° |
| 2026-04-26 20:25 | 36.51500 | -112.27851 | 39759 ft | 428 kts | 229° |
| 2026-04-26 20:26 | 36.47373 | -112.33203 | 39766 ft | 428 kts | 229° |
| 2026-04-26 20:26 | 36.43255 | -112.38537 | 39769 ft | 427 kts | 229° |
| 2026-04-26 20:27 | 36.39134 | -112.43866 | 39771 ft | 427 kts | 229° |
| 2026-04-26 20:27 | 36.35014 | -112.49181 | 39780 ft | 426 kts | 229° |
| 2026-04-26 20:28 | 36.30905 | -112.54477 | 39766 ft | 425 kts | 229° |
| 2026-04-26 20:28 | 36.26822 | -112.59731 | 39773 ft | 426 kts | 229° |
| 2026-04-26 20:29 | 36.22706 | -112.65019 | 39775 ft | 425 kts | 229° |
| 2026-04-26 20:29 | 36.18596 | -112.70290 | 39789 ft | 425 kts | 229° |
| 2026-04-26 20:30 | 36.14481 | -112.75559 | 39786 ft | 425 kts | 229° |
| 2026-04-26 20:30 | 36.10367 | -112.80818 | 39784 ft | 424 kts | 229° |
| 2026-04-26 20:31 | 36.06300 | -112.86007 | 39786 ft | 422 kts | 229° |
| 2026-04-26 20:31 | 36.02212 | -112.91218 | 39790 ft | 422 kts | 229° |
| 2026-04-26 20:32 | 35.98116 | -112.96429 | 39792 ft | 422 kts | 229° |
| 2026-04-26 20:32 | 35.94023 | -113.01628 | 39790 ft | 422 kts | 229° |
| 2026-04-26 20:33 | 35.89923 | -113.06828 | 39790 ft | 422 kts | 229° |
| 2026-04-26 20:33 | 35.85829 | -113.12012 | 39788 ft | 421 kts | 229° |
| 2026-04-26 20:34 | 35.81732 | -113.17191 | 39828 ft | 422 kts | 229° |
| 2026-04-26 20:34 | 35.79684 | -113.19778 | 39997 ft | 422 kts | 229° |
| 2026-04-26 20:34 | 35.77657 | -113.22336 | 40188 ft | 422 kts | 229° |
| 2026-04-26 20:34 | 35.75604 | -113.24924 | 40330 ft | 422 kts | 229° |
| 2026-04-26 20:35 | 35.73554 | -113.27506 | 40473 ft | 422 kts | 229° |
| 2026-04-26 20:35 | 35.71501 | -113.30090 | 40616 ft | 422 kts | 229° |
| 2026-04-26 20:35 | 35.69444 | -113.32678 | 40741 ft | 423 kts | 229° |
| 2026-04-26 20:36 | 35.65326 | -113.37851 | 40791 ft | 423 kts | 229° |
| 2026-04-26 20:36 | 35.61207 | -113.43018 | 40794 ft | 422 kts | 229° |
| 2026-04-26 20:37 | 35.57087 | -113.48178 | 40772 ft | 422 kts | 229° |
| 2026-04-26 20:37 | 35.53000 | -113.53288 | 40796 ft | 421 kts | 229° |
| 2026-04-26 20:38 | 35.48898 | -113.58410 | 40797 ft | 420 kts | 229° |
| 2026-04-26 20:38 | 35.44797 | -113.63521 | 40815 ft | 420 kts | 229° |
| 2026-04-26 20:39 | 35.40693 | -113.68631 | 40848 ft | 420 kts | 229° |
| 2026-04-26 20:39 | 35.36619 | -113.73694 | 40878 ft | 420 kts | 229° |
| 2026-04-26 20:40 | 35.32512 | -113.78790 | 40911 ft | 421 kts | 229° |
| 2026-04-26 20:40 | 35.28365 | -113.83928 | 40934 ft | 421 kts | 229° |
| 2026-04-26 20:41 | 35.24276 | -113.88986 | 40933 ft | 419 kts | 229° |
| 2026-04-26 20:41 | 35.20194 | -113.94026 | 40934 ft | 416 kts | 229° |
| 2026-04-26 20:42 | 35.16200 | -113.98952 | 40927 ft | 415 kts | 229° |
| 2026-04-26 20:42 | 35.14165 | -114.01460 | 40802 ft | 415 kts | 229° |
| 2026-04-26 20:42 | 35.12129 | -114.03967 | 40802 ft | 415 kts | 229° |
| 2026-04-26 20:43 | 35.08060 | -114.08970 | 40805 ft | 416 kts | 229° |
| 2026-04-26 20:43 | 35.03965 | -114.13999 | 40804 ft | 417 kts | 229° |
| 2026-04-26 20:44 | 34.99865 | -114.19024 | 40807 ft | 418 kts | 229° |
| 2026-04-26 20:44 | 34.95786 | -114.24017 | 40807 ft | 418 kts | 229° |
| 2026-04-26 20:45 | 34.91687 | -114.29027 | 40807 ft | 416 kts | 229° |
| 2026-04-26 20:45 | 34.87601 | -114.34014 | 40825 ft | 415 kts | 229° |
| 2026-04-26 20:46 | 34.83512 | -114.38998 | 40881 ft | 415 kts | 229° |
| 2026-04-26 20:46 | 34.79419 | -114.43978 | 40877 ft | 416 kts | 229° |
| 2026-04-26 20:47 | 34.75316 | -114.48947 | 40891 ft | 417 kts | 228° |
| 2026-04-26 20:47 | 34.71076 | -114.53774 | 40896 ft | 417 kts | 227° |
| 2026-04-26 20:48 | 34.66861 | -114.58560 | 40893 ft | 417 kts | 227° |
| 2026-04-26 20:48 | 34.62633 | -114.63378 | 40869 ft | 416 kts | 228° |
| 2026-04-26 20:49 | 34.58430 | -114.68166 | 40870 ft | 413 kts | 228° |
| 2026-04-26 20:49 | 34.54240 | -114.72934 | 40858 ft | 412 kts | 228° |
| 2026-04-26 20:50 | 34.50053 | -114.77694 | 40851 ft | 412 kts | 227° |
| 2026-04-26 20:50 | 34.45884 | -114.82426 | 40844 ft | 412 kts | 228° |
| 2026-04-26 20:51 | 34.41694 | -114.87174 | 40837 ft | 413 kts | 227° |
| 2026-04-26 20:51 | 34.37501 | -114.91920 | 40840 ft | 412 kts | 227° |
| 2026-04-26 20:52 | 34.33307 | -114.96659 | 40843 ft | 412 kts | 227° |
| 2026-04-26 20:52 | 34.29121 | -115.01383 | 40850 ft | 410 kts | 228° |
| 2026-04-26 20:53 | 34.24956 | -115.06075 | 40852 ft | 408 kts | 228° |
| 2026-04-26 20:53 | 34.20802 | -115.10751 | 40853 ft | 408 kts | 228° |
| 2026-04-26 20:54 | 34.16648 | -115.15419 | 40857 ft | 408 kts | 228° |
| 2026-04-26 20:54 | 34.12510 | -115.20063 | 40863 ft | 409 kts | 228° |
| 2026-04-26 20:55 | 34.08348 | -115.24728 | 40859 ft | 408 kts | 228° |
| 2026-04-26 20:55 | 34.04177 | -115.29394 | 40864 ft | 408 kts | 228° |
| 2026-04-26 20:56 | 34.00715 | -115.33263 | 40852 ft | 408 kts | 228° |
| 2026-04-26 20:56 | 33.96563 | -115.37896 | 40869 ft | 406 kts | 228° |
| 2026-04-26 20:57 | 33.92421 | -115.42512 | 40873 ft | 405 kts | 228° |
| 2026-04-26 20:57 | 33.88279 | -115.47122 | 40884 ft | 405 kts | 228° |
| 2026-04-26 20:58 | 33.84138 | -115.51725 | 40804 ft | 405 kts | 228° |
| 2026-04-26 20:58 | 33.82070 | -115.54022 | 40568 ft | 404 kts | 228° |
| 2026-04-26 20:58 | 33.80002 | -115.56315 | 39989 ft | 403 kts | 228° |
| 2026-04-26 20:58 | 33.77983 | -115.58551 | 39675 ft | 395 kts | 228° |
| 2026-04-26 20:59 | 33.75995 | -115.60751 | 39172 ft | 393 kts | 228° |
| 2026-04-26 20:59 | 33.73973 | -115.62995 | 38271 ft | 399 kts | 228° |
| 2026-04-26 20:59 | 33.71893 | -115.65301 | 37362 ft | 402 kts | 228° |
| 2026-04-26 20:59 | 33.69862 | -115.67546 | 36501 ft | 403 kts | 228° |
| 2026-04-26 21:00 | 33.67799 | -115.69820 | 35795 ft | 401 kts | 228° |
| 2026-04-26 21:00 | 33.65745 | -115.72089 | 35043 ft | 399 kts | 228° |
| 2026-04-26 21:00 | 33.63735 | -115.74310 | 34217 ft | 387 kts | 229° |
| 2026-04-26 21:00 | 33.61886 | -115.76637 | 33346 ft | 385 kts | 234° |
| 2026-04-26 21:01 | 33.60285 | -115.79204 | 32499 ft | 384 kts | 238° |
| 2026-04-26 21:01 | 33.58762 | -115.81841 | 31672 ft | 384 kts | 238° |
| 2026-04-26 21:01 | 33.57250 | -115.84483 | 30888 ft | 385 kts | 238° |
| 2026-04-26 21:01 | 33.55738 | -115.87110 | 30350 ft | 380 kts | 238° |
| 2026-04-26 21:02 | 33.54240 | -115.89704 | 29739 ft | 376 kts | 238° |
| 2026-04-26 21:02 | 33.52773 | -115.92242 | 29154 ft | 372 kts | 238° |
| 2026-04-26 21:02 | 33.51306 | -115.94779 | 28559 ft | 367 kts | 238° |
| 2026-04-26 21:02 | 33.49865 | -115.97279 | 28006 ft | 363 kts | 238° |
| 2026-04-26 21:03 | 33.48432 | -115.99750 | 27443 ft | 359 kts | 238° |
| 2026-04-26 21:03 | 33.47010 | -116.02198 | 26896 ft | 357 kts | 238° |
| 2026-04-26 21:03 | 33.45594 | -116.04636 | 26323 ft | 357 kts | 238° |
| 2026-04-26 21:03 | 33.44175 | -116.07081 | 25763 ft | 357 kts | 238° |
| 2026-04-26 21:04 | 33.42756 | -116.09522 | 25205 ft | 358 kts | 238° |
| 2026-04-26 21:04 | 33.41333 | -116.11971 | 24627 ft | 359 kts | 238° |
| 2026-04-26 21:04 | 33.39902 | -116.14432 | 24056 ft | 359 kts | 237° |
| 2026-04-26 21:04 | 33.38449 | -116.16867 | 23463 ft | 360 kts | 235° |
| 2026-04-26 21:05 | 33.36759 | -116.19052 | 22817 ft | 363 kts | 226° |
| 2026-04-26 21:05 | 33.34875 | -116.21067 | 22199 ft | 363 kts | 225° |
| 2026-04-26 21:05 | 33.32980 | -116.23049 | 21584 ft | 362 kts | 225° |
| 2026-04-26 21:05 | 33.31093 | -116.25027 | 20989 ft | 359 kts | 225° |
| 2026-04-26 21:06 | 33.29223 | -116.26989 | 20374 ft | 357 kts | 225° |
| 2026-04-26 21:06 | 33.27364 | -116.28940 | 19773 ft | 355 kts | 225° |
| 2026-04-26 21:06 | 33.25508 | -116.30888 | 19165 ft | 354 kts | 225° |
| 2026-04-26 21:06 | 33.23658 | -116.32831 | 18562 ft | 354 kts | 225° |
| 2026-04-26 21:07 | 33.21789 | -116.34793 | 17890 ft | 358 kts | 225° |
| 2026-04-26 21:07 | 33.19920 | -116.36752 | 17215 ft | 357 kts | 225° |
| 2026-04-26 21:07 | 33.18056 | -116.38703 | 16520 ft | 355 kts | 225° |
| 2026-04-26 21:07 | 33.16223 | -116.40608 | 15885 ft | 353 kts | 225° |
| 2026-04-26 21:08 | 33.14382 | -116.42536 | 15236 ft | 351 kts | 225° |
| 2026-04-26 21:08 | 33.12555 | -116.44454 | 14614 ft | 349 kts | 225° |
| 2026-04-26 21:08 | 33.10729 | -116.46367 | 13986 ft | 348 kts | 226° |
| 2026-04-26 21:08 | 33.08903 | -116.48276 | 13321 ft | 347 kts | 226° |
| 2026-04-26 21:09 | 33.07096 | -116.50162 | 12677 ft | 344 kts | 226° |
| 2026-04-26 21:09 | 33.05301 | -116.52038 | 12148 ft | 343 kts | 226° |
| 2026-04-26 21:09 | 33.03494 | -116.53923 | 11935 ft | 346 kts | 226° |
| 2026-04-26 21:09 | 33.01684 | -116.55815 | 11912 ft | 343 kts | 226° |
| 2026-04-26 21:10 | 32.99929 | -116.57639 | 11759 ft | 327 kts | 226° |
| 2026-04-26 21:10 | 32.98246 | -116.59379 | 11495 ft | 313 kts | 226° |
| 2026-04-26 21:10 | 32.96659 | -116.61016 | 11140 ft | 292 kts | 226° |
| 2026-04-26 21:10 | 32.95138 | -116.62559 | 10677 ft | 282 kts | 223° |
| 2026-04-26 21:11 | 32.93468 | -116.63667 | 10411 ft | 280 kts | 206° |
| 2026-04-26 21:11 | 32.91511 | -116.64106 | 10163 ft | 292 kts | 192° |
| 2026-04-26 21:11 | 32.89478 | -116.64258 | 9904 ft | 293 kts | 190° |
| 2026-04-26 21:11 | 32.87451 | -116.64375 | 9598 ft | 291 kts | 189° |
| 2026-04-26 21:12 | 32.85434 | -116.64494 | 9318 ft | 289 kts | 189° |
| 2026-04-26 21:12 | 32.83454 | -116.64618 | 8971 ft | 277 kts | 189° |
| 2026-04-26 21:12 | 32.81578 | -116.64737 | 8571 ft | 264 kts | 189° |
| 2026-04-26 21:12 | 32.79788 | -116.64854 | 8184 ft | 252 kts | 189° |
| 2026-04-26 21:13 | 32.78077 | -116.64974 | 7806 ft | 242 kts | 189° |
| 2026-04-26 21:13 | 32.76428 | -116.65104 | 7417 ft | 234 kts | 189° |
| 2026-04-26 21:13 | 32.74822 | -116.65285 | 7056 ft | 228 kts | 197° |
| 2026-04-26 21:13 | 32.73459 | -116.66131 | 6955 ft | 218 kts | 230° |
| 2026-04-26 21:14 | 32.72759 | -116.67647 | 6942 ft | 209 kts | 261° |
| 2026-04-26 21:14 | 32.72786 | -116.69370 | 6954 ft | 212 kts | 278° |
| 2026-04-26 21:14 | 32.73040 | -116.71087 | 6822 ft | 209 kts | 281° |
| 2026-04-26 21:14 | 32.73319 | -116.72784 | 6581 ft | 209 kts | 280° |
| 2026-04-26 21:15 | 32.73601 | -116.74444 | 6355 ft | 208 kts | 280° |
| 2026-04-26 21:15 | 32.73893 | -116.76118 | 6099 ft | 206 kts | 281° |
| 2026-04-26 21:15 | 32.74119 | -116.77772 | 5835 ft | 200 kts | 269° |
| 2026-04-26 21:15 | 32.73666 | -116.79292 | 5597 ft | 196 kts | 234° |
| 2026-04-26 21:16 | 32.72540 | -116.80160 | 5353 ft | 198 kts | 199° |
| 2026-04-26 21:16 | 32.71155 | -116.80076 | 5096 ft | 204 kts | 167° |
| 2026-04-26 21:16 | 32.69849 | -116.79481 | 4966 ft | 196 kts | 161° |
| 2026-04-26 21:16 | 32.68633 | -116.78810 | 4962 ft | 192 kts | 161° |
| 2026-04-26 21:17 | 32.67427 | -116.78129 | 4962 ft | 191 kts | 161° |
| 2026-04-26 21:17 | 32.66171 | -116.77792 | 4967 ft | 180 kts | 193° |
| 2026-04-26 21:17 | 32.65104 | -116.78388 | 4967 ft | 169 kts | 230° |
| 2026-04-26 21:17 | 32.64353 | -116.79455 | 4974 ft | 167 kts | 242° |
| 2026-04-26 21:18 | 32.64096 | -116.80732 | 4976 ft | 163 kts | 281° |
| 2026-04-26 21:18 | 32.64437 | -116.82028 | 4978 ft | 165 kts | 287° |
| 2026-04-26 21:18 | 32.64790 | -116.83312 | 4977 ft | 162 kts | 284° |
| 2026-04-26 21:18 | 32.65108 | -116.84578 | 4974 ft | 160 kts | 284° |
| 2026-04-26 21:19 | 32.65421 | -116.85863 | 4979 ft | 162 kts | 284° |
| 2026-04-26 21:19 | 32.65730 | -116.87154 | 4976 ft | 165 kts | 285° |
| 2026-04-26 21:19 | 32.66042 | -116.88460 | 4978 ft | 168 kts | 285° |
| 2026-04-26 21:19 | 32.66360 | -116.89794 | 4978 ft | 168 kts | 285° |
| 2026-04-26 21:20 | 32.66678 | -116.91126 | 4979 ft | 168 kts | 285° |
| 2026-04-26 21:20 | 32.66997 | -116.92468 | 4976 ft | 169 kts | 285° |
| 2026-04-26 21:20 | 32.67316 | -116.93809 | 4879 ft | 168 kts | 285° |
| 2026-04-26 21:20 | 32.67633 | -116.95136 | 4615 ft | 167 kts | 286° |
| 2026-04-26 21:21 | 32.67950 | -116.96457 | 4313 ft | 167 kts | 285° |
| 2026-04-26 21:21 | 32.68269 | -116.97794 | 4044 ft | 167 kts | 285° |
| 2026-04-26 21:21 | 32.68586 | -116.99116 | 3797 ft | 165 kts | 285° |
| 2026-04-26 21:21 | 32.68900 | -117.00425 | 3519 ft | 164 kts | 285° |
| 2026-04-26 21:22 | 32.69212 | -117.01729 | 3258 ft | 163 kts | 286° |
| 2026-04-26 21:22 | 32.69523 | -117.03025 | 3002 ft | 163 kts | 285° |
| 2026-04-26 21:22 | 32.69831 | -117.04310 | 2761 ft | 158 kts | 285° |
| 2026-04-26 21:23 | 32.70424 | -117.06783 | 2270 ft | 156 kts | 284° |
| 2026-04-26 21:23 | 32.70712 | -117.07984 | 2046 ft | 147 kts | 285° |
| 2026-04-26 21:23 | 32.70983 | -117.09111 | 1803 ft | 137 kts | 285° |
| 2026-04-26 21:23 | 32.71237 | -117.10161 | 1607 ft | 128 kts | 284° |
| 2026-04-26 21:24 | 32.71492 | -117.11149 | 1383 ft | 124 kts | 283° |
| 2026-04-26 21:24 | 32.71729 | -117.12146 | 1168 ft | 127 kts | 284° |
| 2026-04-26 21:24 | 32.71973 | -117.13153 | 1009 ft | 127 kts | 285° |
| 2026-04-26 21:24 | 32.72198 | -117.14161 | 807 ft | 124 kts | 286° |
| 2026-04-26 21:25 | 32.72422 | -117.15142 | 583 ft | 123 kts | 285° |
| 2026-04-26 21:25 | 32.72660 | -117.16125 | 411 ft | 124 kts | 289° |
| 2026-04-26 21:25 | 32.72895 | -117.17110 | 223 ft | 125 kts | 290° |
| 2026-04-26 21:25 | 32.73140 | -117.18100 | 49 ft | 123 kts | 288° |
| 2026-04-26 21:26 | 32.73362 | -117.18997 | 29 ft | 98 kts | 286° |
| 2026-04-26 21:26 | 32.73518 | -117.19637 | 31 ft | 52 kts | 286° |
| 2026-04-26 21:26 | 32.73600 | -117.19973 | 30 ft | 30 kts | 285° |
| 2026-04-26 21:26 | 32.73647 | -117.20170 | 29 ft | 24 kts | 286° |
| 2026-04-26 21:27 | 32.73689 | -117.20344 | 29 ft | 20 kts | 282° |
| 2026-04-26 21:27 | 32.73643 | -117.20416 | 29 ft | 11 kts | 201° |
| 2026-04-26 21:27 | 32.73600 | -117.20430 | 29 ft | 2 kts | 195° |
| 2026-04-26 21:27 | 32.73597 | -117.20431 | 29 ft | 0 kts | 195° |
| 2026-04-26 21:28 | 32.73570 | -117.20442 | 29 ft | 8 kts | 202° |
| 2026-04-26 21:28 | 32.73524 | -117.20495 | 29 ft | 11 kts | 231° |
| 2026-04-26 21:29 | 32.73466 | -117.20557 | 29 ft | 11 kts | 195° |
| 2026-04-26 21:29 | 32.73387 | -117.20561 | 29 ft | 11 kts | 181° |
| 2026-04-26 21:29 | 32.73343 | -117.20584 | 29 ft | 4 kts | 244° |
| 2026-04-26 21:29 | 32.73339 | -117.20629 | 29 ft | 7 kts | 270° |
| 2026-04-26 21:30 | 32.73336 | -117.20686 | 29 ft | 5 kts | 247° |
| 2026-04-26 21:30 | 32.73306 | -117.20706 | 29 ft | 6 kts | 192° |
| 2026-04-26 21:30 | 32.73273 | -117.20711 | 29 ft | 0 kts | 191° |
| 2026-04-26 21:30 | 32.73267 | -117.20713 | 29 ft | 3 kts | 191° |
| 2026-04-26 21:31 | 32.73250 | -117.20717 | 29 ft | 0 kts | 192° |